UAE414 OMDB-YSSY
Flight info
| Callsign | UAE414 |
|---|---|
| Flight time | 13h 6m |
| Altitude | 31000 |
| Route | ANVIX L223 TARDI N629 GIDAN P570 EMURU M300 VASTU/N0501F330 P895 BIKOK M641 KAT N640 ELATI/N0494F350 DCT 07S096E 11S101E 14S105E 16S108E DCT PAVNU/N0484F370 DCT 21S118E DCT KADUN DCT UGAVI DCT 2500S12915E 27S134E DCT AGAGO/N0480F390 DCT GUGAB G222 VAGPO Y71 VELGI Y105 TARAL Y59 RIVET |
| Aircraft | B77W/H-SDE1E2E3FGHIJ2J3J4J5M1RWXYZ/LB1D1 |
Departure
| Time | 2026-05-04 22:28 |
|---|---|
| Airport | Dubai International Airport (OMDB) |
Arrival
| Time | 2026-05-05 11:34 |
|---|---|
| Airport | Sydney Kingsford Smith International Airport (YSSY) |
| Time | Latitude | Longitude | Altitude | Speed | Heading |
|---|---|---|---|---|---|
| 2026-05-04 21:09 | 25.25330 | 55.35137 | 30 ft | 0 kts | 31° |
| 2026-05-04 22:07 | 25.25322 | 55.35132 | 31 ft | 3 kts | 31° |
| 2026-05-04 22:07 | 25.25305 | 55.35120 | 28 ft | 3 kts | 31° |
| 2026-05-04 22:08 | 25.25290 | 55.35110 | 31 ft | 3 kts | 22° |
| 2026-05-04 22:08 | 25.25273 | 55.35107 | 31 ft | 3 kts | 335° |
| 2026-05-04 22:08 | 25.25258 | 55.35119 | 31 ft | 3 kts | 307° |
| 2026-05-04 22:08 | 25.25247 | 55.35137 | 31 ft | 3 kts | 302° |
| 2026-05-04 22:09 | 25.25237 | 55.35156 | 31 ft | 3 kts | 302° |
| 2026-05-04 22:09 | 25.25233 | 55.35163 | 31 ft | 0 kts | 302° |
| 2026-05-04 22:12 | 25.25234 | 55.35161 | 31 ft | 1 kts | 302° |
| 2026-05-04 22:12 | 25.25242 | 55.35147 | 28 ft | 3 kts | 302° |
| 2026-05-04 22:13 | 25.25257 | 55.35120 | 31 ft | 5 kts | 302° |
| 2026-05-04 22:13 | 25.25280 | 55.35078 | 29 ft | 7 kts | 302° |
| 2026-05-04 22:13 | 25.25307 | 55.35030 | 29 ft | 7 kts | 302° |
| 2026-05-04 22:13 | 25.25334 | 55.34983 | 30 ft | 7 kts | 301° |
| 2026-05-04 22:14 | 25.25362 | 55.34936 | 31 ft | 8 kts | 309° |
| 2026-05-04 22:14 | 25.25413 | 55.34902 | 31 ft | 10 kts | 343° |
| 2026-05-04 22:14 | 25.25479 | 55.34910 | 30 ft | 10 kts | 22° |
| 2026-05-04 22:14 | 25.25539 | 55.34947 | 28 ft | 10 kts | 31° |
| 2026-05-04 22:15 | 25.25598 | 55.34985 | 29 ft | 10 kts | 31° |
| 2026-05-04 22:15 | 25.25656 | 55.35024 | 31 ft | 10 kts | 31° |
| 2026-05-04 22:15 | 25.25714 | 55.35063 | 29 ft | 9 kts | 31° |
| 2026-05-04 22:15 | 25.25762 | 55.35080 | 30 ft | 7 kts | 350° |
| 2026-05-04 22:16 | 25.25808 | 55.35056 | 29 ft | 7 kts | 347° |
| 2026-05-04 22:16 | 25.25857 | 55.35068 | 30 ft | 8 kts | 27° |
| 2026-05-04 22:16 | 25.25906 | 55.35100 | 29 ft | 9 kts | 31° |
| 2026-05-04 22:16 | 25.25962 | 55.35137 | 30 ft | 10 kts | 31° |
| 2026-05-04 22:17 | 25.26020 | 55.35175 | 32 ft | 10 kts | 31° |
| 2026-05-04 22:17 | 25.26078 | 55.35214 | 27 ft | 10 kts | 31° |
| 2026-05-04 22:17 | 25.26136 | 55.35253 | 27 ft | 10 kts | 31° |
| 2026-05-04 22:17 | 25.26194 | 55.35292 | 28 ft | 10 kts | 31° |
| 2026-05-04 22:18 | 25.26252 | 55.35332 | 29 ft | 10 kts | 31° |
| 2026-05-04 22:18 | 25.26310 | 55.35371 | 29 ft | 10 kts | 31° |
| 2026-05-04 22:18 | 25.26368 | 55.35410 | 28 ft | 10 kts | 31° |
| 2026-05-04 22:18 | 25.26417 | 55.35444 | 27 ft | 7 kts | 33° |
| 2026-05-04 22:19 | 25.26427 | 55.35495 | 27 ft | 7 kts | 106° |
| 2026-05-04 22:19 | 25.26402 | 55.35546 | 27 ft | 8 kts | 121° |
| 2026-05-04 22:19 | 25.26369 | 55.35606 | 26 ft | 10 kts | 122° |
| 2026-05-04 22:19 | 25.26327 | 55.35680 | 29 ft | 13 kts | 122° |
| 2026-05-04 22:20 | 25.26277 | 55.35769 | 30 ft | 14 kts | 122° |
| 2026-05-04 22:20 | 25.26221 | 55.35868 | 26 ft | 16 kts | 122° |
| 2026-05-04 22:20 | 25.26159 | 55.35979 | 26 ft | 18 kts | 122° |
| 2026-05-04 22:20 | 25.26089 | 55.36103 | 27 ft | 20 kts | 122° |
| 2026-05-04 22:21 | 25.26012 | 55.36240 | 27 ft | 22 kts | 122° |
| 2026-05-04 22:21 | 25.25925 | 55.36393 | 27 ft | 25 kts | 122° |
| 2026-05-04 22:21 | 25.25831 | 55.36562 | 27 ft | 26 kts | 122° |
| 2026-05-04 22:21 | 25.25735 | 55.36731 | 27 ft | 26 kts | 122° |
| 2026-05-04 22:22 | 25.25638 | 55.36905 | 27 ft | 26 kts | 122° |
| 2026-05-04 22:22 | 25.25542 | 55.37075 | 27 ft | 26 kts | 122° |
| 2026-05-04 22:22 | 25.25445 | 55.37247 | 27 ft | 26 kts | 122° |
| 2026-05-04 22:22 | 25.25349 | 55.37419 | 28 ft | 26 kts | 121° |
| 2026-05-04 22:23 | 25.25252 | 55.37591 | 28 ft | 26 kts | 122° |
| 2026-05-04 22:23 | 25.25161 | 55.37752 | 28 ft | 22 kts | 122° |
| 2026-05-04 22:23 | 25.25092 | 55.37876 | 27 ft | 17 kts | 122° |
| 2026-05-04 22:23 | 25.25030 | 55.37986 | 27 ft | 17 kts | 122° |
| 2026-05-04 22:24 | 25.24979 | 55.38077 | 27 ft | 10 kts | 122° |
| 2026-05-04 22:24 | 25.24955 | 55.38120 | 26 ft | 5 kts | 122° |
| 2026-05-04 22:24 | 25.24922 | 55.38125 | 27 ft | 5 kts | 195° |
| 2026-05-04 22:24 | 25.24908 | 55.38117 | 27 ft | 0 kts | 208° |
| 2026-05-04 22:25 | 25.24894 | 55.38108 | 28 ft | 5 kts | 210° |
| 2026-05-04 22:25 | 25.24859 | 55.38086 | 29 ft | 6 kts | 210° |
| 2026-05-04 22:26 | 25.24824 | 55.38063 | 30 ft | 6 kts | 211° |
| 2026-05-04 22:26 | 25.24809 | 55.38026 | 30 ft | 6 kts | 283° |
| 2026-05-04 22:26 | 25.24820 | 55.38004 | 30 ft | 0 kts | 300° |
| 2026-05-04 22:27 | 25.24852 | 55.37945 | 30 ft | 26 kts | 301° |
| 2026-05-04 22:27 | 25.25076 | 55.37539 | 32 ft | 100 kts | 301° |
| 2026-05-04 22:28 | 25.25565 | 55.36659 | 29 ft | 168 kts | 301° |
| 2026-05-04 22:28 | 25.26261 | 55.35376 | 104 ft | 209 kts | 299° |
| 2026-05-04 22:28 | 25.27000 | 55.34001 | 671 ft | 210 kts | 300° |
| 2026-05-04 22:28 | 25.27764 | 55.32620 | 1231 ft | 212 kts | 301° |
| 2026-05-04 22:29 | 25.28554 | 55.31196 | 1603 ft | 220 kts | 302° |
| 2026-05-04 22:29 | 25.29189 | 55.29653 | 1885 ft | 228 kts | 274° |
| 2026-05-04 22:29 | 25.28929 | 55.27908 | 2221 ft | 234 kts | 250° |
| 2026-05-04 22:29 | 25.28260 | 55.26249 | 2728 ft | 237 kts | 246° |
| 2026-05-04 22:30 | 25.27540 | 55.24605 | 3267 ft | 239 kts | 246° |
| 2026-05-04 22:30 | 25.26814 | 55.22936 | 3756 ft | 242 kts | 246° |
| 2026-05-04 22:30 | 25.26082 | 55.21246 | 4240 ft | 245 kts | 246° |
| 2026-05-04 22:30 | 25.25339 | 55.19541 | 4704 ft | 249 kts | 243° |
| 2026-05-04 22:31 | 25.24131 | 55.18159 | 4987 ft | 257 kts | 206° |
| 2026-05-04 22:31 | 25.22386 | 55.17830 | 5357 ft | 259 kts | 168° |
| 2026-05-04 22:31 | 25.20791 | 55.18669 | 5747 ft | 256 kts | 133° |
| 2026-05-04 22:31 | 25.19727 | 55.20241 | 6035 ft | 261 kts | 119° |
| 2026-05-04 22:32 | 25.18736 | 55.21994 | 6270 ft | 277 kts | 119° |
| 2026-05-04 22:32 | 25.17685 | 55.23866 | 6418 ft | 297 kts | 119° |
| 2026-05-04 22:32 | 25.16578 | 55.25850 | 6589 ft | 318 kts | 119° |
| 2026-05-04 22:32 | 25.15367 | 55.28023 | 6788 ft | 338 kts | 120° |
| 2026-05-04 22:33 | 25.14097 | 55.30298 | 6973 ft | 358 kts | 120° |
| 2026-05-04 22:33 | 25.12783 | 55.32644 | 7363 ft | 368 kts | 120° |
| 2026-05-04 22:33 | 25.11425 | 55.35062 | 7937 ft | 374 kts | 120° |
| 2026-05-04 22:33 | 25.10046 | 55.37515 | 8617 ft | 376 kts | 120° |
| 2026-05-04 22:34 | 25.08661 | 55.39976 | 9322 ft | 378 kts | 120° |
| 2026-05-04 22:34 | 25.07267 | 55.42450 | 9965 ft | 381 kts | 120° |
| 2026-05-04 22:34 | 25.05860 | 55.44948 | 10539 ft | 386 kts | 121° |
| 2026-05-04 22:34 | 25.04433 | 55.47479 | 11089 ft | 390 kts | 121° |
| 2026-05-04 22:35 | 25.02992 | 55.50035 | 11652 ft | 395 kts | 121° |
| 2026-05-04 22:35 | 25.01532 | 55.52624 | 12166 ft | 400 kts | 121° |
| 2026-05-04 22:35 | 25.00054 | 55.55241 | 12735 ft | 404 kts | 121° |
| 2026-05-04 22:35 | 24.98565 | 55.57877 | 13354 ft | 406 kts | 121° |
| 2026-05-04 22:36 | 24.97069 | 55.60526 | 13877 ft | 410 kts | 122° |
| 2026-05-04 22:36 | 24.95549 | 55.63214 | 14357 ft | 414 kts | 122° |
| 2026-05-04 22:36 | 24.94017 | 55.65920 | 14873 ft | 418 kts | 122° |
| 2026-05-04 22:36 | 24.92495 | 55.68610 | 15367 ft | 421 kts | 122° |
| 2026-05-04 22:37 | 24.90940 | 55.71356 | 15883 ft | 424 kts | 122° |
| 2026-05-04 22:37 | 24.89365 | 55.74136 | 16378 ft | 428 kts | 122° |
| 2026-05-04 22:37 | 24.87782 | 55.76928 | 16873 ft | 432 kts | 122° |
| 2026-05-04 22:37 | 24.86186 | 55.79741 | 17366 ft | 435 kts | 122° |
| 2026-05-04 22:38 | 24.84574 | 55.82582 | 17854 ft | 439 kts | 122° |
| 2026-05-04 22:38 | 24.82953 | 55.85438 | 18361 ft | 442 kts | 122° |
| 2026-05-04 22:38 | 24.81319 | 55.88314 | 18817 ft | 444 kts | 122° |
| 2026-05-04 22:38 | 24.79666 | 55.91204 | 19259 ft | 447 kts | 124° |
| 2026-05-04 22:39 | 24.77811 | 55.93973 | 19699 ft | 450 kts | 130° |
| 2026-05-04 22:39 | 24.75692 | 55.96520 | 20132 ft | 452 kts | 137° |
| 2026-05-04 22:39 | 24.73363 | 55.98859 | 20579 ft | 455 kts | 139° |
| 2026-05-04 22:39 | 24.71023 | 56.01209 | 21009 ft | 458 kts | 139° |
| 2026-05-04 22:40 | 24.68685 | 56.03602 | 21464 ft | 461 kts | 138° |
| 2026-05-04 22:40 | 24.66333 | 56.06022 | 21894 ft | 464 kts | 138° |
| 2026-05-04 22:40 | 24.63999 | 56.08415 | 22314 ft | 467 kts | 138° |
| 2026-05-04 22:40 | 24.61584 | 56.10885 | 22736 ft | 470 kts | 139° |
| 2026-05-04 22:41 | 24.59188 | 56.13338 | 23146 ft | 473 kts | 138° |
| 2026-05-04 22:41 | 24.56840 | 56.15811 | 23503 ft | 476 kts | 135° |
| 2026-05-04 22:41 | 24.54627 | 56.18546 | 23826 ft | 480 kts | 132° |
| 2026-05-04 22:41 | 24.52458 | 56.21351 | 24161 ft | 483 kts | 131° |
| 2026-05-04 22:42 | 24.50280 | 56.24168 | 24483 ft | 485 kts | 132° |
| 2026-05-04 22:42 | 24.48085 | 56.26992 | 24788 ft | 488 kts | 132° |
| 2026-05-04 22:42 | 24.45863 | 56.29834 | 25086 ft | 491 kts | 132° |
| 2026-05-04 22:42 | 24.43623 | 56.32686 | 25348 ft | 494 kts | 132° |
| 2026-05-04 22:43 | 24.41372 | 56.35546 | 25632 ft | 497 kts | 132° |
| 2026-05-04 22:43 | 24.39104 | 56.38424 | 25903 ft | 499 kts | 133° |
| 2026-05-04 22:43 | 24.36830 | 56.41309 | 26199 ft | 502 kts | 133° |
| 2026-05-04 22:43 | 24.34539 | 56.44217 | 26467 ft | 504 kts | 133° |
| 2026-05-04 22:44 | 24.32241 | 56.47130 | 26744 ft | 507 kts | 133° |
| 2026-05-04 22:44 | 24.29940 | 56.50069 | 27016 ft | 509 kts | 131° |
| 2026-05-04 22:44 | 24.27778 | 56.53172 | 27280 ft | 513 kts | 128° |
| 2026-05-04 22:44 | 24.25713 | 56.56311 | 27539 ft | 516 kts | 127° |
| 2026-05-04 22:45 | 24.23618 | 56.59511 | 27795 ft | 518 kts | 127° |
| 2026-05-04 22:45 | 24.19378 | 56.65951 | 28266 ft | 523 kts | 128° |
| 2026-05-04 22:45 | 24.17236 | 56.69181 | 28505 ft | 525 kts | 128° |
| 2026-05-04 22:46 | 24.15080 | 56.72422 | 28750 ft | 527 kts | 128° |
| 2026-05-04 22:46 | 24.12919 | 56.75667 | 29020 ft | 528 kts | 128° |
| 2026-05-04 22:46 | 24.10756 | 56.78913 | 29350 ft | 527 kts | 128° |
| 2026-05-04 22:46 | 24.08595 | 56.82156 | 29707 ft | 527 kts | 128° |
| 2026-05-04 22:47 | 24.06439 | 56.85391 | 29992 ft | 526 kts | 128° |
| 2026-05-04 22:47 | 24.04286 | 56.88620 | 30286 ft | 525 kts | 128° |
| 2026-05-04 22:47 | 24.02135 | 56.91834 | 30631 ft | 523 kts | 128° |
| 2026-05-04 22:47 | 23.99970 | 56.95054 | 30702 ft | 527 kts | 128° |
| 2026-05-04 22:48 | 23.95627 | 57.01502 | 30797 ft | 523 kts | 128° |
| 2026-05-04 22:48 | 23.91325 | 57.07893 | 30757 ft | 521 kts | 128° |
| 2026-05-04 22:49 | 23.87028 | 57.14271 | 30770 ft | 521 kts | 128° |
| 2026-05-04 22:49 | 23.82771 | 57.20603 | 30752 ft | 520 kts | 128° |
| 2026-05-04 22:50 | 23.78482 | 57.26978 | 30763 ft | 519 kts | 128° |
| 2026-05-04 22:50 | 23.74209 | 57.33319 | 30766 ft | 519 kts | 128° |
| 2026-05-04 22:51 | 23.69886 | 57.39631 | 30755 ft | 519 kts | 130° |
| 2026-05-04 22:51 | 23.65381 | 57.45791 | 30770 ft | 519 kts | 130° |
| 2026-05-04 22:52 | 23.60863 | 57.51939 | 30761 ft | 520 kts | 130° |
| 2026-05-04 22:52 | 23.57119 | 57.57084 | 30782 ft | 521 kts | 130° |
| 2026-05-04 22:53 | 23.52619 | 57.63285 | 30772 ft | 522 kts | 130° |
| 2026-05-04 22:53 | 23.47372 | 57.70492 | 30794 ft | 522 kts | 130° |
| 2026-05-04 22:54 | 23.43575 | 57.75674 | 30787 ft | 522 kts | 130° |
| 2026-05-04 22:54 | 23.39059 | 57.81825 | 30781 ft | 522 kts | 130° |
| 2026-05-04 22:55 | 23.34525 | 57.87999 | 30781 ft | 523 kts | 130° |
| 2026-05-04 22:55 | 23.29981 | 57.94184 | 30768 ft | 522 kts | 130° |
| 2026-05-04 22:56 | 23.25446 | 58.00350 | 30793 ft | 522 kts | 130° |
| 2026-05-04 22:56 | 23.21231 | 58.06735 | 30794 ft | 523 kts | 125° |
| 2026-05-04 22:57 | 23.17155 | 58.13283 | 30808 ft | 523 kts | 125° |
| 2026-05-04 22:57 | 23.13053 | 58.19815 | 30797 ft | 523 kts | 126° |
| 2026-05-04 22:58 | 23.08929 | 58.26337 | 30785 ft | 524 kts | 126° |
| 2026-05-04 22:58 | 23.04787 | 58.32844 | 30784 ft | 523 kts | 128° |
| 2026-05-04 22:59 | 22.99820 | 58.38538 | 30806 ft | 519 kts | 142° |
| 2026-05-04 22:59 | 22.93908 | 58.42977 | 30816 ft | 515 kts | 152° |
| 2026-05-04 23:00 | 22.87738 | 58.46950 | 30794 ft | 515 kts | 152° |
| 2026-05-04 23:00 | 22.81593 | 58.50975 | 30795 ft | 516 kts | 151° |
| 2026-05-04 23:01 | 22.75476 | 58.55027 | 30812 ft | 516 kts | 150° |
| 2026-05-04 23:01 | 22.69346 | 58.59084 | 30802 ft | 516 kts | 150° |
| 2026-05-04 23:02 | 22.63210 | 58.63134 | 30801 ft | 516 kts | 151° |
| 2026-05-04 23:02 | 22.57078 | 58.67178 | 30796 ft | 516 kts | 150° |
| 2026-05-04 23:03 | 22.50936 | 58.71227 | 30797 ft | 516 kts | 150° |
| 2026-05-04 23:03 | 22.44806 | 58.75266 | 30801 ft | 516 kts | 150° |
| 2026-05-04 23:04 | 22.38713 | 58.79275 | 30802 ft | 516 kts | 150° |
| 2026-05-04 23:04 | 22.32579 | 58.83308 | 30793 ft | 516 kts | 150° |
| 2026-05-04 23:05 | 22.26479 | 58.87398 | 30798 ft | 517 kts | 146° |
| 2026-05-04 23:05 | 22.20985 | 58.92431 | 30796 ft | 519 kts | 135° |
| 2026-05-04 23:06 | 22.16278 | 58.98340 | 30792 ft | 520 kts | 130° |
| 2026-05-04 23:06 | 22.11698 | 59.04381 | 30794 ft | 520 kts | 130° |
| 2026-05-04 23:07 | 22.07087 | 59.10399 | 30790 ft | 520 kts | 130° |
| 2026-05-04 23:07 | 22.02456 | 59.16388 | 30771 ft | 520 kts | 131° |
| 2026-05-04 23:08 | 21.97820 | 59.22367 | 30776 ft | 519 kts | 131° |
| 2026-05-04 23:08 | 21.93186 | 59.28339 | 30776 ft | 519 kts | 131° |
| 2026-05-04 23:09 | 21.88552 | 59.34307 | 30762 ft | 519 kts | 131° |
| 2026-05-04 23:09 | 21.83919 | 59.40269 | 30767 ft | 519 kts | 131° |
| 2026-05-04 23:10 | 21.79281 | 59.46231 | 30764 ft | 519 kts | 131° |
| 2026-05-04 23:10 | 21.74676 | 59.52144 | 30758 ft | 519 kts | 131° |
| 2026-05-04 23:11 | 21.70036 | 59.58094 | 30760 ft | 519 kts | 131° |
| 2026-05-04 23:11 | 21.65392 | 59.64044 | 30758 ft | 519 kts | 131° |
| 2026-05-04 23:12 | 21.60749 | 59.69986 | 30758 ft | 519 kts | 131° |
| 2026-05-04 23:12 | 21.56105 | 59.75924 | 30758 ft | 519 kts | 131° |
| 2026-05-04 23:13 | 21.51442 | 59.81860 | 30760 ft | 519 kts | 131° |
| 2026-05-04 23:13 | 21.46772 | 59.87782 | 30757 ft | 519 kts | 131° |
| 2026-05-04 23:14 | 21.42101 | 59.93702 | 30754 ft | 520 kts | 131° |
| 2026-05-04 23:14 | 21.37430 | 59.99620 | 30757 ft | 520 kts | 131° |
| 2026-05-04 23:15 | 21.32778 | 60.05508 | 30758 ft | 520 kts | 131° |
| 2026-05-04 23:15 | 21.28105 | 60.11418 | 30763 ft | 520 kts | 131° |
| 2026-05-04 23:16 | 21.23427 | 60.17326 | 30768 ft | 520 kts | 131° |
| 2026-05-04 23:16 | 21.18751 | 60.23240 | 30758 ft | 520 kts | 131° |
| 2026-05-04 23:17 | 21.14081 | 60.29150 | 30769 ft | 520 kts | 131° |
| 2026-05-04 23:17 | 21.09404 | 60.35062 | 30767 ft | 520 kts | 131° |
| 2026-05-04 23:18 | 21.04729 | 60.40965 | 30767 ft | 520 kts | 131° |
| 2026-05-04 23:18 | 21.00049 | 60.46866 | 30771 ft | 520 kts | 131° |
| 2026-05-04 23:19 | 20.95366 | 60.52765 | 30763 ft | 520 kts | 131° |
| 2026-05-04 23:19 | 20.90682 | 60.58660 | 30770 ft | 520 kts | 131° |
| 2026-05-04 23:20 | 20.85989 | 60.64559 | 30775 ft | 520 kts | 131° |
| 2026-05-04 23:20 | 20.81301 | 60.70447 | 30774 ft | 520 kts | 131° |
| 2026-05-04 23:21 | 20.76602 | 60.76341 | 30786 ft | 520 kts | 131° |
| 2026-05-04 23:21 | 20.71944 | 60.82180 | 30767 ft | 520 kts | 131° |
| 2026-05-04 23:22 | 20.67247 | 60.88061 | 30777 ft | 521 kts | 131° |
| 2026-05-04 23:22 | 20.62550 | 60.93951 | 30782 ft | 521 kts | 129° |
| 2026-05-04 23:23 | 20.58412 | 61.00297 | 30782 ft | 521 kts | 122° |
| 2026-05-04 23:23 | 20.54563 | 61.06861 | 30786 ft | 521 kts | 122° |
| 2026-05-04 23:24 | 20.50703 | 61.13404 | 30784 ft | 521 kts | 122° |
| 2026-05-04 23:24 | 20.46806 | 61.19939 | 30780 ft | 521 kts | 123° |
| 2026-05-04 23:25 | 20.42927 | 61.26411 | 30784 ft | 522 kts | 123° |
| 2026-05-04 23:25 | 20.39011 | 61.32935 | 30788 ft | 522 kts | 123° |
| 2026-05-04 23:26 | 20.35098 | 61.39452 | 30789 ft | 522 kts | 123° |
| 2026-05-04 23:26 | 20.31181 | 61.45972 | 30789 ft | 522 kts | 123° |
| 2026-05-04 23:27 | 20.27267 | 61.52479 | 30791 ft | 522 kts | 123° |
| 2026-05-04 23:27 | 20.23344 | 61.58994 | 30788 ft | 522 kts | 123° |
| 2026-05-04 23:28 | 20.19421 | 61.65500 | 30792 ft | 522 kts | 123° |
| 2026-05-04 23:28 | 20.15496 | 61.72002 | 30793 ft | 522 kts | 123° |
| 2026-05-04 23:29 | 20.11593 | 61.78463 | 30793 ft | 522 kts | 123° |
| 2026-05-04 23:29 | 20.07666 | 61.84954 | 30795 ft | 522 kts | 123° |
| 2026-05-04 23:30 | 20.03726 | 61.91460 | 30798 ft | 522 kts | 123° |
| 2026-05-04 23:30 | 19.99795 | 61.97945 | 30798 ft | 522 kts | 123° |
| 2026-05-04 23:31 | 19.95865 | 62.04421 | 30798 ft | 521 kts | 123° |
| 2026-05-04 23:31 | 19.91927 | 62.10901 | 30801 ft | 521 kts | 123° |
| 2026-05-04 23:32 | 19.87991 | 62.17373 | 30802 ft | 521 kts | 123° |
| 2026-05-04 23:32 | 19.84055 | 62.23837 | 30805 ft | 521 kts | 123° |
| 2026-05-04 23:33 | 19.80121 | 62.30291 | 30804 ft | 521 kts | 123° |
| 2026-05-04 23:33 | 19.76208 | 62.36703 | 30802 ft | 521 kts | 123° |
| 2026-05-04 23:34 | 19.72269 | 62.43151 | 30808 ft | 520 kts | 123° |
| 2026-05-04 23:34 | 19.68325 | 62.49600 | 30805 ft | 521 kts | 123° |
| 2026-05-04 23:35 | 19.64381 | 62.56042 | 30811 ft | 521 kts | 123° |
| 2026-05-04 23:35 | 19.60433 | 62.62485 | 30807 ft | 521 kts | 123° |
| 2026-05-04 23:36 | 19.56479 | 62.68929 | 30800 ft | 521 kts | 123° |
| 2026-05-04 23:36 | 19.52529 | 62.75361 | 30806 ft | 520 kts | 123° |
| 2026-05-04 23:37 | 19.48582 | 62.81780 | 30806 ft | 520 kts | 123° |
| 2026-05-04 23:37 | 19.44658 | 62.88156 | 30805 ft | 520 kts | 123° |
| 2026-05-04 23:38 | 19.40705 | 62.94572 | 30807 ft | 519 kts | 123° |
| 2026-05-04 23:38 | 19.36756 | 63.00975 | 30807 ft | 519 kts | 123° |
| 2026-05-04 23:39 | 19.32799 | 63.07384 | 30809 ft | 519 kts | 123° |
| 2026-05-04 23:39 | 19.28846 | 63.13781 | 30807 ft | 519 kts | 123° |
| 2026-05-04 23:40 | 19.24889 | 63.20176 | 30807 ft | 519 kts | 123° |
| 2026-05-04 23:40 | 19.21597 | 63.25493 | 30808 ft | 519 kts | 123° |
| 2026-05-04 23:41 | 19.16996 | 63.32913 | 30811 ft | 519 kts | 123° |
| 2026-05-04 23:41 | 19.13039 | 63.39290 | 30812 ft | 519 kts | 123° |
| 2026-05-04 23:42 | 19.09746 | 63.44592 | 30814 ft | 519 kts | 123° |
| 2026-05-04 23:42 | 19.05787 | 63.50961 | 30817 ft | 518 kts | 123° |
| 2026-05-04 23:43 | 19.01827 | 63.57324 | 30813 ft | 518 kts | 123° |
| 2026-05-04 23:43 | 18.97869 | 63.63676 | 30813 ft | 517 kts | 123° |
| 2026-05-04 23:44 | 18.93911 | 63.70020 | 30813 ft | 517 kts | 123° |
| 2026-05-04 23:44 | 18.89954 | 63.76359 | 30820 ft | 517 kts | 123° |
| 2026-05-04 23:45 | 18.85995 | 63.82696 | 30823 ft | 516 kts | 123° |
| 2026-05-04 23:45 | 18.82036 | 63.89029 | 30817 ft | 516 kts | 123° |
| 2026-05-04 23:46 | 18.78083 | 63.95344 | 30822 ft | 515 kts | 123° |
| 2026-05-04 23:46 | 18.74161 | 64.01605 | 30819 ft | 515 kts | 123° |
| 2026-05-04 23:47 | 18.70205 | 64.07912 | 30826 ft | 515 kts | 123° |
| 2026-05-04 23:47 | 18.66250 | 64.14211 | 30823 ft | 515 kts | 123° |
| 2026-05-04 23:48 | 18.62296 | 64.20504 | 30824 ft | 514 kts | 123° |
| 2026-05-04 23:48 | 18.58340 | 64.26792 | 30825 ft | 514 kts | 123° |
| 2026-05-04 23:49 | 18.54383 | 64.33076 | 30826 ft | 514 kts | 123° |
| 2026-05-04 23:49 | 18.50446 | 64.39323 | 30828 ft | 514 kts | 123° |
| 2026-05-04 23:50 | 18.46490 | 64.45593 | 30829 ft | 514 kts | 123° |
| 2026-05-04 23:50 | 18.42527 | 64.51868 | 30831 ft | 514 kts | 123° |
| 2026-05-04 23:51 | 18.38564 | 64.58137 | 30830 ft | 514 kts | 123° |
| 2026-05-04 23:51 | 18.34593 | 64.64412 | 30831 ft | 514 kts | 123° |
| 2026-05-04 23:52 | 18.30630 | 64.70669 | 30830 ft | 514 kts | 123° |
| 2026-05-04 23:52 | 18.26662 | 64.76929 | 30831 ft | 513 kts | 123° |
| 2026-05-04 23:53 | 18.22696 | 64.83176 | 30832 ft | 513 kts | 123° |
| 2026-05-04 23:53 | 18.18736 | 64.89411 | 30832 ft | 513 kts | 123° |
| 2026-05-04 23:54 | 18.14792 | 64.95614 | 30835 ft | 512 kts | 123° |
| 2026-05-04 23:54 | 18.10824 | 65.01848 | 30833 ft | 512 kts | 123° |
| 2026-05-04 23:55 | 18.06857 | 65.08075 | 30833 ft | 513 kts | 123° |
| 2026-05-04 23:56 | 18.00904 | 65.17408 | 30835 ft | 513 kts | 123° |
| 2026-05-04 23:56 | 17.96933 | 65.23628 | 30839 ft | 512 kts | 123° |
| 2026-05-04 23:57 | 17.92961 | 65.29842 | 30840 ft | 512 kts | 123° |
| 2026-05-04 23:57 | 17.88986 | 65.36054 | 30838 ft | 512 kts | 123° |
| 2026-05-04 23:58 | 17.85028 | 65.42236 | 30841 ft | 513 kts | 123° |
| 2026-05-04 23:58 | 17.81025 | 65.48481 | 30840 ft | 513 kts | 123° |
| 2026-05-04 23:59 | 17.77047 | 65.54681 | 30841 ft | 512 kts | 123° |
| 2026-05-04 23:59 | 17.73068 | 65.60877 | 30842 ft | 512 kts | 123° |
| 2026-05-05 00:00 | 17.69118 | 65.67025 | 30841 ft | 512 kts | 123° |
| 2026-05-05 00:00 | 17.65133 | 65.73221 | 30848 ft | 512 kts | 123° |
| 2026-05-05 00:01 | 17.61150 | 65.79413 | 30849 ft | 512 kts | 123° |
| 2026-05-05 00:01 | 17.57256 | 65.85673 | 30847 ft | 513 kts | 122° |
| 2026-05-05 00:02 | 17.53429 | 65.91930 | 30848 ft | 512 kts | 122° |
| 2026-05-05 00:02 | 17.49575 | 65.98210 | 30846 ft | 512 kts | 122° |
| 2026-05-05 00:03 | 17.45710 | 66.04472 | 30846 ft | 512 kts | 122° |
| 2026-05-05 00:03 | 17.41840 | 66.10728 | 30845 ft | 511 kts | 122° |
| 2026-05-05 00:04 | 17.37965 | 66.16986 | 30845 ft | 511 kts | 122° |
| 2026-05-05 00:04 | 17.34097 | 66.23227 | 30853 ft | 511 kts | 122° |
| 2026-05-05 00:05 | 17.30229 | 66.29465 | 30850 ft | 511 kts | 122° |
| 2026-05-05 00:05 | 17.26360 | 66.35697 | 30854 ft | 511 kts | 122° |
| 2026-05-05 00:06 | 17.22479 | 66.41945 | 30855 ft | 512 kts | 122° |
| 2026-05-05 00:06 | 17.18595 | 66.48190 | 30852 ft | 512 kts | 122° |
| 2026-05-05 00:07 | 17.14728 | 66.54402 | 30847 ft | 512 kts | 122° |
| 2026-05-05 00:07 | 17.10834 | 66.60653 | 30852 ft | 512 kts | 122° |
| 2026-05-05 00:08 | 17.06942 | 66.66895 | 30848 ft | 512 kts | 122° |
| 2026-05-05 00:08 | 17.03047 | 66.73135 | 30845 ft | 512 kts | 122° |
| 2026-05-05 00:09 | 16.99151 | 66.79371 | 30845 ft | 512 kts | 122° |
| 2026-05-05 00:09 | 16.95263 | 66.85589 | 30849 ft | 511 kts | 122° |
| 2026-05-05 00:10 | 16.91379 | 66.91795 | 30851 ft | 510 kts | 122° |
| 2026-05-05 00:10 | 16.87492 | 66.98001 | 30849 ft | 510 kts | 122° |
| 2026-05-05 00:11 | 16.83629 | 67.04162 | 30845 ft | 510 kts | 122° |
| 2026-05-05 00:11 | 16.79737 | 67.10366 | 30850 ft | 510 kts | 122° |
| 2026-05-05 00:12 | 16.75850 | 67.16555 | 30848 ft | 510 kts | 122° |
| 2026-05-05 00:12 | 16.71964 | 67.22736 | 30851 ft | 510 kts | 122° |
| 2026-05-05 00:13 | 16.68093 | 67.28888 | 30846 ft | 509 kts | 122° |
| 2026-05-05 00:13 | 16.64202 | 67.35068 | 30845 ft | 509 kts | 122° |
| 2026-05-05 00:14 | 16.60316 | 67.41234 | 30850 ft | 509 kts | 122° |
| 2026-05-05 00:14 | 16.56422 | 67.47406 | 30845 ft | 509 kts | 122° |
| 2026-05-05 00:15 | 16.52525 | 67.53579 | 30850 ft | 509 kts | 122° |
| 2026-05-05 00:15 | 16.48631 | 67.59743 | 30846 ft | 510 kts | 122° |
| 2026-05-05 00:16 | 16.44731 | 67.65909 | 30851 ft | 509 kts | 122° |
| 2026-05-05 00:16 | 16.40830 | 67.72072 | 30845 ft | 510 kts | 123° |
| 2026-05-05 00:17 | 16.36950 | 67.78197 | 30853 ft | 509 kts | 122° |
| 2026-05-05 00:17 | 16.33045 | 67.84357 | 30845 ft | 509 kts | 123° |
| 2026-05-05 00:18 | 16.29142 | 67.90510 | 30852 ft | 509 kts | 122° |
| 2026-05-05 00:18 | 16.25246 | 67.96652 | 30847 ft | 509 kts | 122° |
| 2026-05-05 00:19 | 16.21363 | 68.02820 | 30852 ft | 509 kts | 122° |
| 2026-05-05 00:19 | 16.17488 | 68.08989 | 30847 ft | 509 kts | 122° |
| 2026-05-05 00:20 | 16.13611 | 68.15150 | 30852 ft | 509 kts | 122° |
| 2026-05-05 00:20 | 16.09729 | 68.21310 | 30847 ft | 509 kts | 123° |
| 2026-05-05 00:21 | 16.05845 | 68.27465 | 30851 ft | 509 kts | 123° |
| 2026-05-05 00:21 | 16.01958 | 68.33620 | 30846 ft | 509 kts | 123° |
| 2026-05-05 00:22 | 15.98072 | 68.39769 | 30852 ft | 509 kts | 123° |
| 2026-05-05 00:22 | 15.94182 | 68.45920 | 30846 ft | 509 kts | 123° |
| 2026-05-05 00:23 | 15.90294 | 68.52060 | 30852 ft | 509 kts | 123° |
| 2026-05-05 00:23 | 15.86428 | 68.58163 | 30846 ft | 509 kts | 123° |
| 2026-05-05 00:24 | 15.82534 | 68.64303 | 30852 ft | 508 kts | 123° |
| 2026-05-05 00:24 | 15.78650 | 68.70425 | 30848 ft | 508 kts | 123° |
| 2026-05-05 00:25 | 15.74764 | 68.76542 | 30852 ft | 507 kts | 123° |
| 2026-05-05 00:25 | 15.70880 | 68.82652 | 30845 ft | 508 kts | 123° |
| 2026-05-05 00:26 | 15.66990 | 68.88767 | 30856 ft | 508 kts | 123° |
| 2026-05-05 00:26 | 15.63090 | 68.94892 | 30843 ft | 508 kts | 123° |
| 2026-05-05 00:27 | 15.59200 | 69.00997 | 30849 ft | 506 kts | 123° |
| 2026-05-05 00:27 | 15.55316 | 69.07087 | 30846 ft | 505 kts | 123° |
| 2026-05-05 00:28 | 15.51447 | 69.13149 | 30853 ft | 503 kts | 123° |
| 2026-05-05 00:28 | 15.48232 | 69.18183 | 30848 ft | 503 kts | 123° |
| 2026-05-05 00:29 | 15.44369 | 69.24226 | 30859 ft | 503 kts | 123° |
| 2026-05-05 00:29 | 15.40500 | 69.30275 | 30850 ft | 504 kts | 123° |
| 2026-05-05 00:30 | 15.36621 | 69.36335 | 30858 ft | 504 kts | 123° |
| 2026-05-05 00:30 | 15.32742 | 69.42389 | 30855 ft | 504 kts | 123° |
| 2026-05-05 00:31 | 15.28864 | 69.48437 | 30858 ft | 504 kts | 123° |
| 2026-05-05 00:31 | 15.25012 | 69.54440 | 30851 ft | 503 kts | 123° |
| 2026-05-05 00:32 | 15.21135 | 69.60478 | 30857 ft | 503 kts | 123° |
| 2026-05-05 00:32 | 15.17260 | 69.66507 | 30853 ft | 503 kts | 123° |
| 2026-05-05 00:33 | 15.13389 | 69.72529 | 30860 ft | 502 kts | 123° |
| 2026-05-05 00:33 | 15.09525 | 69.78553 | 30853 ft | 503 kts | 122° |
| 2026-05-05 00:34 | 15.05684 | 69.84607 | 30853 ft | 503 kts | 122° |
| 2026-05-05 00:34 | 15.01844 | 69.90664 | 30853 ft | 503 kts | 122° |
| 2026-05-05 00:35 | 14.98025 | 69.96677 | 30858 ft | 502 kts | 122° |
| 2026-05-05 00:35 | 14.94182 | 70.02716 | 30856 ft | 502 kts | 122° |
| 2026-05-05 00:36 | 14.90338 | 70.08752 | 30861 ft | 502 kts | 123° |
| 2026-05-05 00:36 | 14.86493 | 70.14785 | 30856 ft | 502 kts | 122° |
| 2026-05-05 00:37 | 14.82670 | 70.20780 | 30859 ft | 502 kts | 123° |
| 2026-05-05 00:37 | 14.78825 | 70.26803 | 30855 ft | 502 kts | 122° |
| 2026-05-05 00:38 | 14.74980 | 70.32823 | 30862 ft | 502 kts | 123° |
| 2026-05-05 00:38 | 14.71132 | 70.38843 | 30860 ft | 501 kts | 122° |
| 2026-05-05 00:39 | 14.67290 | 70.44849 | 30861 ft | 501 kts | 123° |
| 2026-05-05 00:39 | 14.63451 | 70.50844 | 30864 ft | 500 kts | 122° |
| 2026-05-05 00:40 | 14.59614 | 70.56834 | 30867 ft | 500 kts | 123° |
| 2026-05-05 00:40 | 14.55775 | 70.62822 | 30862 ft | 499 kts | 123° |
| 2026-05-05 00:41 | 14.51937 | 70.68804 | 30871 ft | 499 kts | 123° |
| 2026-05-05 00:41 | 14.48127 | 70.74738 | 30864 ft | 499 kts | 123° |
| 2026-05-05 00:42 | 14.44289 | 70.80712 | 30869 ft | 499 kts | 123° |
| 2026-05-05 00:42 | 14.40451 | 70.86681 | 30865 ft | 499 kts | 123° |
| 2026-05-05 00:43 | 14.36610 | 70.92652 | 30871 ft | 499 kts | 123° |
| 2026-05-05 00:43 | 14.32786 | 70.98624 | 30865 ft | 499 kts | 122° |
| 2026-05-05 00:44 | 14.29000 | 71.04627 | 30863 ft | 499 kts | 122° |
| 2026-05-05 00:44 | 14.25226 | 71.10619 | 30869 ft | 498 kts | 122° |
| 2026-05-05 00:45 | 14.21442 | 71.16613 | 30866 ft | 498 kts | 122° |
| 2026-05-05 00:45 | 14.17656 | 71.22596 | 30867 ft | 498 kts | 122° |
| 2026-05-05 00:46 | 14.13866 | 71.28579 | 30865 ft | 498 kts | 122° |
| 2026-05-05 00:46 | 14.10104 | 71.34515 | 30864 ft | 497 kts | 122° |
| 2026-05-05 00:47 | 14.06323 | 71.40478 | 30861 ft | 497 kts | 122° |
| 2026-05-05 00:47 | 14.02539 | 71.46441 | 30867 ft | 497 kts | 122° |
| 2026-05-05 00:48 | 13.98759 | 71.52394 | 30867 ft | 496 kts | 122° |
| 2026-05-05 00:48 | 13.94979 | 71.58343 | 30861 ft | 497 kts | 122° |
| 2026-05-05 00:49 | 13.91187 | 71.64305 | 30871 ft | 497 kts | 122° |
| 2026-05-05 00:49 | 13.87390 | 71.70271 | 30867 ft | 498 kts | 122° |
| 2026-05-05 00:50 | 13.83611 | 71.76206 | 30865 ft | 499 kts | 122° |
| 2026-05-05 00:50 | 13.79798 | 71.82189 | 30872 ft | 500 kts | 122° |
| 2026-05-05 00:51 | 13.75984 | 71.88171 | 30861 ft | 501 kts | 122° |
| 2026-05-05 00:51 | 13.72160 | 71.94166 | 30869 ft | 501 kts | 123° |
| 2026-05-05 00:52 | 13.68313 | 72.00145 | 30872 ft | 501 kts | 125° |
| 2026-05-05 00:52 | 13.63977 | 72.05757 | 30874 ft | 502 kts | 129° |
| 2026-05-05 00:53 | 13.59534 | 72.11296 | 30859 ft | 502 kts | 129° |
| 2026-05-05 00:53 | 13.55112 | 72.16842 | 30868 ft | 502 kts | 129° |
| 2026-05-05 00:54 | 13.50710 | 72.22399 | 30860 ft | 501 kts | 128° |
| 2026-05-05 00:54 | 13.46316 | 72.27955 | 30857 ft | 501 kts | 129° |
| 2026-05-05 00:55 | 13.41918 | 72.33513 | 30869 ft | 501 kts | 129° |
| 2026-05-05 00:55 | 13.37545 | 72.39033 | 30858 ft | 501 kts | 129° |
| 2026-05-05 00:56 | 13.33140 | 72.44589 | 30862 ft | 501 kts | 129° |
| 2026-05-05 00:56 | 13.28735 | 72.50141 | 30863 ft | 501 kts | 129° |
| 2026-05-05 00:57 | 13.24322 | 72.55699 | 30860 ft | 502 kts | 129° |
| 2026-05-05 00:57 | 13.19920 | 72.61242 | 30865 ft | 502 kts | 129° |
| 2026-05-05 00:58 | 13.15504 | 72.66798 | 30861 ft | 502 kts | 129° |
| 2026-05-05 00:58 | 13.11086 | 72.72351 | 30865 ft | 503 kts | 129° |
| 2026-05-05 00:59 | 13.06658 | 72.77916 | 30861 ft | 503 kts | 129° |
| 2026-05-05 00:59 | 13.02251 | 72.83449 | 30864 ft | 503 kts | 129° |
| 2026-05-05 01:00 | 12.97824 | 72.89005 | 30868 ft | 503 kts | 129° |
| 2026-05-05 01:00 | 12.93389 | 72.94566 | 30866 ft | 503 kts | 129° |
| 2026-05-05 01:01 | 12.88956 | 73.00124 | 30872 ft | 503 kts | 130° |
| 2026-05-05 01:01 | 12.84528 | 73.05670 | 30865 ft | 503 kts | 130° |
| 2026-05-05 01:02 | 12.80097 | 73.11216 | 30855 ft | 503 kts | 130° |
| 2026-05-05 01:02 | 12.75670 | 73.16754 | 30870 ft | 503 kts | 129° |
| 2026-05-05 01:03 | 12.71231 | 73.22304 | 30856 ft | 502 kts | 130° |
| 2026-05-05 01:03 | 12.66806 | 73.27833 | 30865 ft | 502 kts | 130° |
| 2026-05-05 01:04 | 12.62402 | 73.33334 | 30871 ft | 502 kts | 130° |
| 2026-05-05 01:04 | 12.55745 | 73.41640 | 30869 ft | 502 kts | 130° |
| 2026-05-05 01:05 | 12.51307 | 73.47173 | 30867 ft | 502 kts | 130° |
| 2026-05-05 01:05 | 12.46877 | 73.52694 | 30861 ft | 502 kts | 130° |
| 2026-05-05 01:06 | 12.42441 | 73.58219 | 30871 ft | 502 kts | 130° |
| 2026-05-05 01:06 | 12.38007 | 73.63737 | 30864 ft | 502 kts | 130° |
| 2026-05-05 01:07 | 12.33573 | 73.69253 | 30869 ft | 502 kts | 130° |
| 2026-05-05 01:07 | 12.29141 | 73.74763 | 30871 ft | 502 kts | 130° |
| 2026-05-05 01:08 | 12.24704 | 73.80276 | 30868 ft | 502 kts | 130° |
| 2026-05-05 01:08 | 12.20268 | 73.85784 | 30869 ft | 501 kts | 130° |
| 2026-05-05 01:09 | 12.15832 | 73.91288 | 30868 ft | 501 kts | 130° |
| 2026-05-05 01:09 | 12.11425 | 73.96755 | 30866 ft | 501 kts | 130° |
| 2026-05-05 01:10 | 12.06997 | 74.02244 | 30869 ft | 500 kts | 130° |
| 2026-05-05 01:10 | 12.02570 | 74.07729 | 30866 ft | 500 kts | 130° |
| 2026-05-05 01:11 | 11.98145 | 74.13208 | 30869 ft | 499 kts | 130° |
| 2026-05-05 01:11 | 11.93733 | 74.18668 | 30870 ft | 498 kts | 130° |
| 2026-05-05 01:12 | 11.89322 | 74.24124 | 30869 ft | 498 kts | 130° |
| 2026-05-05 01:12 | 11.84914 | 74.29572 | 30865 ft | 497 kts | 130° |
| 2026-05-05 01:13 | 11.80512 | 74.35009 | 30865 ft | 497 kts | 130° |
| 2026-05-05 01:13 | 11.76106 | 74.40450 | 30866 ft | 497 kts | 130° |
| 2026-05-05 01:14 | 11.71694 | 74.45895 | 30869 ft | 497 kts | 130° |
| 2026-05-05 01:14 | 11.68026 | 74.50418 | 30870 ft | 498 kts | 130° |
| 2026-05-05 01:15 | 11.62894 | 74.56746 | 30870 ft | 498 kts | 130° |
| 2026-05-05 01:15 | 11.59196 | 74.61301 | 30869 ft | 498 kts | 130° |
| 2026-05-05 01:16 | 11.54779 | 74.66741 | 30867 ft | 497 kts | 130° |
| 2026-05-05 01:16 | 11.50388 | 74.72146 | 30868 ft | 497 kts | 130° |
| 2026-05-05 01:17 | 11.45971 | 74.77580 | 30868 ft | 497 kts | 130° |
| 2026-05-05 01:17 | 11.41562 | 74.83002 | 30868 ft | 496 kts | 130° |
| 2026-05-05 01:18 | 11.37160 | 74.88412 | 30872 ft | 496 kts | 130° |
| 2026-05-05 01:18 | 11.32748 | 74.93830 | 30871 ft | 496 kts | 130° |
| 2026-05-05 01:19 | 11.28329 | 74.99251 | 30872 ft | 496 kts | 130° |
| 2026-05-05 01:19 | 11.23915 | 75.04663 | 30872 ft | 496 kts | 130° |
| 2026-05-05 01:20 | 11.19506 | 75.10070 | 30869 ft | 496 kts | 130° |
| 2026-05-05 01:20 | 11.15096 | 75.15474 | 30872 ft | 496 kts | 130° |
| 2026-05-05 01:21 | 11.10705 | 75.20852 | 30871 ft | 497 kts | 130° |
| 2026-05-05 01:21 | 11.06286 | 75.26263 | 30874 ft | 497 kts | 130° |
| 2026-05-05 01:22 | 11.01864 | 75.31673 | 30874 ft | 497 kts | 130° |
| 2026-05-05 01:22 | 10.97448 | 75.37074 | 30876 ft | 497 kts | 130° |
| 2026-05-05 01:23 | 10.93030 | 75.42475 | 30879 ft | 496 kts | 130° |
| 2026-05-05 01:23 | 10.88615 | 75.47869 | 30874 ft | 495 kts | 130° |
| 2026-05-05 01:24 | 10.84211 | 75.53247 | 30879 ft | 495 kts | 130° |
| 2026-05-05 01:24 | 10.79796 | 75.58635 | 30876 ft | 495 kts | 131° |
| 2026-05-05 01:25 | 10.75390 | 75.64011 | 30876 ft | 495 kts | 130° |
| 2026-05-05 01:25 | 10.70972 | 75.69397 | 30880 ft | 495 kts | 131° |
| 2026-05-05 01:26 | 10.66583 | 75.74746 | 30877 ft | 495 kts | 130° |
| 2026-05-05 01:26 | 10.62168 | 75.80124 | 30877 ft | 496 kts | 130° |
| 2026-05-05 01:27 | 10.57743 | 75.85510 | 30886 ft | 496 kts | 130° |
| 2026-05-05 01:27 | 10.53315 | 75.90898 | 30875 ft | 496 kts | 130° |
| 2026-05-05 01:28 | 10.48888 | 75.96284 | 30883 ft | 496 kts | 130° |
| 2026-05-05 01:28 | 10.44467 | 76.01659 | 30881 ft | 496 kts | 130° |
| 2026-05-05 01:29 | 10.40042 | 76.07035 | 30881 ft | 495 kts | 130° |
| 2026-05-05 01:29 | 10.35623 | 76.12402 | 30885 ft | 495 kts | 130° |
| 2026-05-05 01:30 | 10.31232 | 76.17732 | 30889 ft | 494 kts | 130° |
| 2026-05-05 01:30 | 10.26825 | 76.23081 | 30890 ft | 493 kts | 130° |
| 2026-05-05 01:31 | 10.22429 | 76.28412 | 30885 ft | 491 kts | 130° |
| 2026-05-05 01:31 | 10.18050 | 76.33723 | 30881 ft | 489 kts | 130° |
| 2026-05-05 01:32 | 10.13677 | 76.39018 | 30884 ft | 488 kts | 130° |
| 2026-05-05 01:32 | 10.09300 | 76.44281 | 30884 ft | 488 kts | 130° |
| 2026-05-05 01:33 | 10.04909 | 76.49550 | 30888 ft | 488 kts | 130° |
| 2026-05-05 01:33 | 10.00514 | 76.54827 | 30896 ft | 490 kts | 130° |
| 2026-05-05 01:34 | 9.96106 | 76.60122 | 30899 ft | 492 kts | 130° |
| 2026-05-05 01:34 | 9.91687 | 76.65428 | 30916 ft | 493 kts | 130° |
| 2026-05-05 01:35 | 9.87263 | 76.70737 | 30917 ft | 494 kts | 130° |
| 2026-05-05 01:35 | 9.82854 | 76.76026 | 30912 ft | 493 kts | 130° |
| 2026-05-05 01:36 | 9.78419 | 76.81344 | 30927 ft | 493 kts | 130° |
| 2026-05-05 01:36 | 9.73992 | 76.86650 | 30927 ft | 492 kts | 130° |
| 2026-05-05 01:37 | 9.69567 | 76.91950 | 30923 ft | 491 kts | 131° |
| 2026-05-05 01:37 | 9.65165 | 76.97220 | 30933 ft | 490 kts | 131° |
| 2026-05-05 01:38 | 9.60760 | 77.02493 | 30940 ft | 489 kts | 131° |
| 2026-05-05 01:38 | 9.56400 | 77.07708 | 30930 ft | 488 kts | 131° |
| 2026-05-05 01:39 | 9.52007 | 77.12962 | 30937 ft | 488 kts | 131° |
| 2026-05-05 01:39 | 9.47757 | 77.18041 | 30937 ft | 489 kts | 131° |
| 2026-05-05 01:40 | 9.43337 | 77.23323 | 31051 ft | 495 kts | 131° |
| 2026-05-05 01:40 | 9.41103 | 77.25991 | 31250 ft | 497 kts | 130° |
| 2026-05-05 01:40 | 9.38872 | 77.28655 | 31539 ft | 495 kts | 130° |
| 2026-05-05 01:41 | 9.36643 | 77.31317 | 31912 ft | 493 kts | 130° |
| 2026-05-05 01:41 | 9.34427 | 77.33962 | 32256 ft | 491 kts | 130° |
| 2026-05-05 01:41 | 9.32219 | 77.36597 | 32577 ft | 490 kts | 130° |
| 2026-05-05 01:41 | 9.30011 | 77.39232 | 32814 ft | 491 kts | 130° |
| 2026-05-05 01:42 | 9.25575 | 77.44523 | 32900 ft | 492 kts | 130° |
| 2026-05-05 01:42 | 9.21175 | 77.49771 | 32895 ft | 485 kts | 130° |
| 2026-05-05 01:43 | 9.16847 | 77.54929 | 32867 ft | 481 kts | 130° |
| 2026-05-05 01:43 | 9.12479 | 77.60135 | 32881 ft | 486 kts | 130° |
| 2026-05-05 01:44 | 9.08095 | 77.65360 | 32880 ft | 492 kts | 130° |
| 2026-05-05 01:44 | 9.03650 | 77.70657 | 32872 ft | 495 kts | 130° |
| 2026-05-05 01:45 | 8.99196 | 77.75964 | 32862 ft | 494 kts | 130° |
| 2026-05-05 01:45 | 8.94757 | 77.81250 | 32859 ft | 491 kts | 130° |
| 2026-05-05 01:46 | 8.90348 | 77.86498 | 32870 ft | 489 kts | 131° |
| 2026-05-05 01:46 | 8.85951 | 77.91729 | 32871 ft | 487 kts | 130° |
| 2026-05-05 01:47 | 8.81557 | 77.96955 | 32889 ft | 487 kts | 131° |
| 2026-05-05 01:47 | 8.77166 | 78.02175 | 32890 ft | 487 kts | 131° |
| 2026-05-05 01:48 | 8.72765 | 78.07405 | 32889 ft | 488 kts | 131° |
| 2026-05-05 01:48 | 8.68366 | 78.12630 | 32885 ft | 488 kts | 131° |
| 2026-05-05 01:49 | 8.64001 | 78.17813 | 32872 ft | 488 kts | 131° |
| 2026-05-05 01:49 | 8.59592 | 78.23046 | 32870 ft | 488 kts | 131° |
| 2026-05-05 01:50 | 8.55195 | 78.28264 | 32867 ft | 488 kts | 131° |
| 2026-05-05 01:50 | 8.50789 | 78.33489 | 32846 ft | 489 kts | 131° |
| 2026-05-05 01:51 | 8.46368 | 78.38730 | 32865 ft | 490 kts | 131° |
| 2026-05-05 01:51 | 8.41933 | 78.43987 | 32864 ft | 492 kts | 131° |
| 2026-05-05 01:52 | 8.37482 | 78.49260 | 32861 ft | 493 kts | 131° |
| 2026-05-05 01:52 | 8.33056 | 78.54503 | 32861 ft | 494 kts | 131° |
| 2026-05-05 01:53 | 8.28598 | 78.59782 | 32861 ft | 493 kts | 131° |
| 2026-05-05 01:53 | 8.24061 | 78.64971 | 32861 ft | 493 kts | 133° |
| 2026-05-05 01:54 | 8.19462 | 78.70090 | 32867 ft | 491 kts | 133° |
| 2026-05-05 01:54 | 8.14887 | 78.75197 | 32859 ft | 490 kts | 132° |
| 2026-05-05 01:55 | 8.10339 | 78.80299 | 32862 ft | 489 kts | 132° |
| 2026-05-05 01:55 | 8.05792 | 78.85407 | 32864 ft | 488 kts | 132° |
| 2026-05-05 01:56 | 8.01252 | 78.90506 | 32868 ft | 488 kts | 132° |
| 2026-05-05 01:56 | 7.96717 | 78.95595 | 32867 ft | 488 kts | 132° |
| 2026-05-05 01:57 | 7.92167 | 79.00699 | 32869 ft | 489 kts | 132° |
| 2026-05-05 01:57 | 7.87611 | 79.05808 | 32872 ft | 490 kts | 132° |
| 2026-05-05 01:58 | 7.83057 | 79.10913 | 32865 ft | 490 kts | 132° |
| 2026-05-05 01:58 | 7.78498 | 79.16022 | 32874 ft | 489 kts | 132° |
| 2026-05-05 01:59 | 7.73981 | 79.21084 | 32874 ft | 489 kts | 132° |
| 2026-05-05 01:59 | 7.69443 | 79.26177 | 32873 ft | 488 kts | 131° |
| 2026-05-05 02:00 | 7.64933 | 79.31314 | 32877 ft | 488 kts | 131° |
| 2026-05-05 02:00 | 7.61198 | 79.35585 | 32886 ft | 488 kts | 131° |
| 2026-05-05 02:01 | 7.56709 | 79.40708 | 32880 ft | 488 kts | 131° |
| 2026-05-05 02:01 | 7.52205 | 79.45838 | 32874 ft | 488 kts | 131° |
| 2026-05-05 02:02 | 7.47704 | 79.50962 | 32887 ft | 489 kts | 132° |
| 2026-05-05 02:02 | 7.43185 | 79.56104 | 32884 ft | 489 kts | 132° |
| 2026-05-05 02:03 | 7.38695 | 79.61213 | 32880 ft | 490 kts | 132° |
| 2026-05-05 02:03 | 7.34173 | 79.66356 | 32887 ft | 490 kts | 131° |
| 2026-05-05 02:04 | 7.29649 | 79.71500 | 32884 ft | 490 kts | 132° |
| 2026-05-05 02:04 | 7.25121 | 79.76647 | 32884 ft | 490 kts | 132° |
| 2026-05-05 02:05 | 7.20598 | 79.81787 | 32875 ft | 490 kts | 132° |
| 2026-05-05 02:05 | 7.16077 | 79.86923 | 32884 ft | 490 kts | 132° |
| 2026-05-05 02:06 | 7.11551 | 79.92075 | 32889 ft | 491 kts | 131° |
| 2026-05-05 02:06 | 7.07056 | 79.97202 | 32885 ft | 491 kts | 131° |
| 2026-05-05 02:07 | 7.02531 | 80.02362 | 32894 ft | 491 kts | 131° |
| 2026-05-05 02:07 | 6.98004 | 80.07521 | 32895 ft | 492 kts | 131° |
| 2026-05-05 02:08 | 6.93480 | 80.12675 | 32892 ft | 492 kts | 131° |
| 2026-05-05 02:08 | 6.88945 | 80.17839 | 32906 ft | 491 kts | 131° |
| 2026-05-05 02:09 | 6.84447 | 80.22960 | 32911 ft | 491 kts | 131° |
| 2026-05-05 02:09 | 6.79898 | 80.28137 | 32909 ft | 490 kts | 131° |
| 2026-05-05 02:10 | 6.75413 | 80.33240 | 32926 ft | 490 kts | 131° |
| 2026-05-05 02:10 | 6.70897 | 80.38376 | 32916 ft | 490 kts | 131° |
| 2026-05-05 02:11 | 6.66375 | 80.43518 | 32921 ft | 490 kts | 131° |
| 2026-05-05 02:11 | 6.61841 | 80.48672 | 32935 ft | 491 kts | 131° |
| 2026-05-05 02:12 | 6.55043 | 80.56396 | 32916 ft | 490 kts | 131° |
| 2026-05-05 02:13 | 6.50573 | 80.61476 | 32900 ft | 482 kts | 131° |
| 2026-05-05 02:13 | 6.46139 | 80.66535 | 32912 ft | 483 kts | 131° |
| 2026-05-05 02:14 | 6.41780 | 80.71647 | 32896 ft | 485 kts | 130° |
| 2026-05-05 02:14 | 6.37382 | 80.76828 | 32887 ft | 486 kts | 131° |
| 2026-05-05 02:15 | 6.32973 | 80.82001 | 32888 ft | 488 kts | 131° |
| 2026-05-05 02:15 | 6.28549 | 80.87180 | 32885 ft | 489 kts | 131° |
| 2026-05-05 02:16 | 6.24135 | 80.92347 | 32877 ft | 489 kts | 131° |
| 2026-05-05 02:16 | 6.19703 | 80.97534 | 32877 ft | 489 kts | 131° |
| 2026-05-05 02:17 | 6.15278 | 81.02712 | 32881 ft | 488 kts | 131° |
| 2026-05-05 02:17 | 6.10853 | 81.07886 | 32881 ft | 487 kts | 131° |
| 2026-05-05 02:18 | 6.06411 | 81.13027 | 32869 ft | 487 kts | 131° |
| 2026-05-05 02:18 | 6.01968 | 81.18152 | 32873 ft | 486 kts | 131° |
| 2026-05-05 02:19 | 5.97558 | 81.23245 | 32873 ft | 485 kts | 131° |
| 2026-05-05 02:19 | 5.93108 | 81.28387 | 32861 ft | 484 kts | 131° |
| 2026-05-05 02:20 | 5.88704 | 81.33476 | 32861 ft | 482 kts | 132° |
| 2026-05-05 02:20 | 5.84304 | 81.38559 | 32866 ft | 481 kts | 132° |
| 2026-05-05 02:21 | 5.79944 | 81.43594 | 32866 ft | 480 kts | 133° |
| 2026-05-05 02:21 | 5.75551 | 81.48666 | 32867 ft | 480 kts | 132° |
| 2026-05-05 02:22 | 5.71157 | 81.53738 | 32866 ft | 481 kts | 133° |
| 2026-05-05 02:22 | 5.66758 | 81.58816 | 32870 ft | 482 kts | 133° |
| 2026-05-05 02:23 | 5.62347 | 81.63904 | 32861 ft | 484 kts | 133° |
| 2026-05-05 02:23 | 5.57937 | 81.69019 | 32864 ft | 486 kts | 132° |
| 2026-05-05 02:24 | 5.53513 | 81.74167 | 32871 ft | 488 kts | 133° |
| 2026-05-05 02:24 | 5.49073 | 81.79332 | 32863 ft | 488 kts | 133° |
| 2026-05-05 02:25 | 5.44662 | 81.84459 | 32860 ft | 488 kts | 132° |
| 2026-05-05 02:25 | 5.40231 | 81.89608 | 32862 ft | 487 kts | 132° |
| 2026-05-05 02:26 | 5.35810 | 81.94743 | 32862 ft | 486 kts | 133° |
| 2026-05-05 02:26 | 5.31390 | 81.99875 | 32863 ft | 485 kts | 133° |
| 2026-05-05 02:27 | 5.26978 | 82.04995 | 32858 ft | 486 kts | 131° |
| 2026-05-05 02:27 | 5.22495 | 82.10197 | 32870 ft | 498 kts | 131° |
| 2026-05-05 02:28 | 5.17949 | 82.15474 | 32865 ft | 500 kts | 131° |
| 2026-05-05 02:28 | 5.13419 | 82.20730 | 32863 ft | 499 kts | 131° |
| 2026-05-05 02:29 | 5.08881 | 82.25993 | 32857 ft | 497 kts | 131° |
| 2026-05-05 02:29 | 5.04370 | 82.31223 | 32857 ft | 495 kts | 131° |
| 2026-05-05 02:30 | 4.99869 | 82.36441 | 32866 ft | 493 kts | 131° |
| 2026-05-05 02:30 | 4.95386 | 82.41637 | 32861 ft | 493 kts | 131° |
| 2026-05-05 02:31 | 4.90926 | 82.46805 | 32862 ft | 492 kts | 131° |
| 2026-05-05 02:31 | 4.86448 | 82.51991 | 32856 ft | 492 kts | 131° |
| 2026-05-05 02:32 | 4.81972 | 82.57176 | 32863 ft | 492 kts | 131° |
| 2026-05-05 02:32 | 4.77488 | 82.62369 | 32865 ft | 493 kts | 131° |
| 2026-05-05 02:33 | 4.72996 | 82.67569 | 32868 ft | 493 kts | 131° |
| 2026-05-05 02:33 | 4.68500 | 82.72772 | 32870 ft | 494 kts | 131° |
| 2026-05-05 02:34 | 4.64003 | 82.77976 | 32865 ft | 494 kts | 131° |
| 2026-05-05 02:34 | 4.59486 | 82.83203 | 32861 ft | 495 kts | 131° |
| 2026-05-05 02:35 | 4.54969 | 82.88428 | 32866 ft | 496 kts | 131° |
| 2026-05-05 02:35 | 4.50445 | 82.93659 | 32862 ft | 497 kts | 131° |
| 2026-05-05 02:36 | 4.45913 | 82.98899 | 32868 ft | 498 kts | 131° |
| 2026-05-05 02:36 | 4.41400 | 83.04116 | 32869 ft | 499 kts | 131° |
| 2026-05-05 02:37 | 4.36847 | 83.09378 | 32864 ft | 498 kts | 131° |
| 2026-05-05 02:37 | 4.32303 | 83.14629 | 32863 ft | 498 kts | 131° |
| 2026-05-05 02:38 | 4.27790 | 83.19842 | 32859 ft | 489 kts | 130° |
| 2026-05-05 02:38 | 4.23364 | 83.24955 | 32860 ft | 486 kts | 130° |
| 2026-05-05 02:39 | 4.18919 | 83.30088 | 32872 ft | 488 kts | 130° |
| 2026-05-05 02:39 | 4.14462 | 83.35235 | 32866 ft | 490 kts | 130° |
| 2026-05-05 02:40 | 4.09987 | 83.40403 | 32865 ft | 491 kts | 130° |
| 2026-05-05 02:40 | 4.05511 | 83.45568 | 32866 ft | 491 kts | 130° |
| 2026-05-05 02:41 | 4.01038 | 83.50730 | 32868 ft | 490 kts | 130° |
| 2026-05-05 02:41 | 3.96601 | 83.55849 | 32867 ft | 489 kts | 130° |
| 2026-05-05 02:42 | 3.92141 | 83.60994 | 32870 ft | 489 kts | 130° |
| 2026-05-05 02:42 | 3.87679 | 83.66140 | 32876 ft | 489 kts | 130° |
| 2026-05-05 02:43 | 3.83221 | 83.71282 | 32874 ft | 489 kts | 130° |
| 2026-05-05 02:43 | 3.78760 | 83.76425 | 32867 ft | 489 kts | 130° |
| 2026-05-05 02:44 | 3.74300 | 83.81567 | 32871 ft | 489 kts | 130° |
| 2026-05-05 02:44 | 3.69838 | 83.86710 | 32878 ft | 488 kts | 130° |
| 2026-05-05 02:45 | 3.65409 | 83.91815 | 32871 ft | 487 kts | 130° |
| 2026-05-05 02:45 | 3.60958 | 83.96944 | 32874 ft | 487 kts | 130° |
| 2026-05-05 02:46 | 3.56515 | 84.02064 | 32874 ft | 487 kts | 130° |
| 2026-05-05 02:46 | 3.52078 | 84.07165 | 32870 ft | 488 kts | 130° |
| 2026-05-05 02:47 | 3.47541 | 84.12220 | 32879 ft | 488 kts | 131° |
| 2026-05-05 02:47 | 3.42972 | 84.17251 | 32874 ft | 488 kts | 131° |
| 2026-05-05 02:48 | 3.38397 | 84.22302 | 32877 ft | 490 kts | 130° |
| 2026-05-05 02:48 | 3.33824 | 84.27370 | 32875 ft | 491 kts | 130° |
| 2026-05-05 02:49 | 3.29260 | 84.32432 | 32872 ft | 493 kts | 131° |
| 2026-05-05 02:49 | 3.25401 | 84.36711 | 32876 ft | 496 kts | 131° |
| 2026-05-05 02:50 | 3.20010 | 84.42687 | 32876 ft | 498 kts | 131° |
| 2026-05-05 02:50 | 3.16144 | 84.46971 | 32879 ft | 499 kts | 130° |
| 2026-05-05 02:51 | 3.11487 | 84.52132 | 32878 ft | 499 kts | 131° |
| 2026-05-05 02:51 | 3.06843 | 84.57278 | 32873 ft | 498 kts | 131° |
| 2026-05-05 02:52 | 3.02206 | 84.62413 | 32897 ft | 496 kts | 130° |
| 2026-05-05 02:52 | 2.97587 | 84.67530 | 32873 ft | 494 kts | 130° |
| 2026-05-05 02:53 | 2.93001 | 84.72608 | 32872 ft | 490 kts | 130° |
| 2026-05-05 02:53 | 2.88444 | 84.77654 | 32877 ft | 487 kts | 130° |
| 2026-05-05 02:54 | 2.83903 | 84.82683 | 32885 ft | 486 kts | 130° |
| 2026-05-05 02:54 | 2.79399 | 84.87669 | 32880 ft | 486 kts | 130° |
| 2026-05-05 02:55 | 2.74860 | 84.92695 | 32879 ft | 487 kts | 130° |
| 2026-05-05 02:55 | 2.70308 | 84.97734 | 32900 ft | 488 kts | 130° |
| 2026-05-05 02:56 | 2.65925 | 85.02584 | 32900 ft | 489 kts | 130° |
| 2026-05-05 02:56 | 2.61416 | 85.07571 | 32908 ft | 483 kts | 129° |
| 2026-05-05 02:57 | 2.56861 | 85.12615 | 32901 ft | 491 kts | 130° |
| 2026-05-05 02:57 | 2.52282 | 85.17681 | 32883 ft | 491 kts | 130° |
| 2026-05-05 02:58 | 2.47692 | 85.22757 | 32883 ft | 490 kts | 130° |
| 2026-05-05 02:58 | 2.43124 | 85.27808 | 32879 ft | 489 kts | 130° |
| 2026-05-05 02:59 | 2.38570 | 85.32844 | 32885 ft | 487 kts | 130° |
| 2026-05-05 02:59 | 2.34066 | 85.37825 | 32884 ft | 485 kts | 130° |
| 2026-05-05 03:00 | 2.29537 | 85.42834 | 32893 ft | 485 kts | 130° |
| 2026-05-05 03:00 | 2.24999 | 85.47851 | 32897 ft | 487 kts | 129° |
| 2026-05-05 03:01 | 2.20446 | 85.52885 | 32893 ft | 489 kts | 130° |
| 2026-05-05 03:01 | 2.15867 | 85.57947 | 32894 ft | 491 kts | 130° |
| 2026-05-05 03:02 | 2.11277 | 85.63021 | 32893 ft | 493 kts | 130° |
| 2026-05-05 03:02 | 2.06674 | 85.68106 | 32878 ft | 493 kts | 130° |
| 2026-05-05 03:03 | 2.02072 | 85.73191 | 32872 ft | 492 kts | 130° |
| 2026-05-05 03:03 | 1.97479 | 85.78266 | 32892 ft | 491 kts | 130° |
| 2026-05-05 03:04 | 1.92898 | 85.83329 | 32894 ft | 490 kts | 130° |
| 2026-05-05 03:04 | 1.88354 | 85.88348 | 32892 ft | 489 kts | 130° |
| 2026-05-05 03:05 | 1.83791 | 85.93389 | 32878 ft | 488 kts | 129° |
| 2026-05-05 03:05 | 1.79237 | 85.98421 | 32876 ft | 488 kts | 130° |
| 2026-05-05 03:06 | 1.74680 | 86.03455 | 32876 ft | 487 kts | 130° |
| 2026-05-05 03:06 | 1.70132 | 86.08478 | 32873 ft | 488 kts | 130° |
| 2026-05-05 03:07 | 1.65575 | 86.13513 | 32892 ft | 488 kts | 130° |
| 2026-05-05 03:07 | 1.61002 | 86.18534 | 32872 ft | 489 kts | 131° |
| 2026-05-05 03:08 | 1.56334 | 86.23430 | 32890 ft | 489 kts | 132° |
| 2026-05-05 03:08 | 1.51613 | 86.28322 | 32890 ft | 489 kts | 131° |
| 2026-05-05 03:09 | 1.46893 | 86.33237 | 32886 ft | 490 kts | 131° |
| 2026-05-05 03:09 | 1.42180 | 86.38167 | 32887 ft | 490 kts | 131° |
| 2026-05-05 03:10 | 1.37470 | 86.43101 | 32886 ft | 491 kts | 131° |
| 2026-05-05 03:10 | 1.32755 | 86.48039 | 32881 ft | 491 kts | 131° |
| 2026-05-05 03:11 | 1.28274 | 86.52729 | 32886 ft | 491 kts | 131° |
| 2026-05-05 03:11 | 1.23559 | 86.57664 | 32882 ft | 491 kts | 131° |
| 2026-05-05 03:12 | 1.18845 | 86.62598 | 32881 ft | 490 kts | 131° |
| 2026-05-05 03:12 | 1.14137 | 86.67524 | 32878 ft | 490 kts | 131° |
| 2026-05-05 03:13 | 1.09433 | 86.72448 | 32881 ft | 490 kts | 131° |
| 2026-05-05 03:13 | 1.04745 | 86.77354 | 32884 ft | 491 kts | 131° |
| 2026-05-05 03:14 | 1.00024 | 86.82294 | 32883 ft | 491 kts | 131° |
| 2026-05-05 03:14 | 0.95306 | 86.87231 | 32881 ft | 492 kts | 131° |
| 2026-05-05 03:15 | 0.90574 | 86.92181 | 32882 ft | 492 kts | 131° |
| 2026-05-05 03:15 | 0.85847 | 86.97127 | 32880 ft | 492 kts | 131° |
| 2026-05-05 03:16 | 0.81123 | 87.02070 | 32883 ft | 492 kts | 131° |
| 2026-05-05 03:16 | 0.76385 | 87.07027 | 32883 ft | 492 kts | 131° |
| 2026-05-05 03:17 | 0.71649 | 87.11981 | 32885 ft | 492 kts | 131° |
| 2026-05-05 03:17 | 0.66945 | 87.16903 | 32885 ft | 492 kts | 131° |
| 2026-05-05 03:18 | 0.62216 | 87.21851 | 32883 ft | 493 kts | 132° |
| 2026-05-05 03:18 | 0.57483 | 87.26801 | 32886 ft | 493 kts | 131° |
| 2026-05-05 03:19 | 0.50386 | 87.34228 | 32880 ft | 493 kts | 131° |
| 2026-05-05 03:19 | 0.45656 | 87.39175 | 32882 ft | 493 kts | 132° |
| 2026-05-05 03:20 | 0.40890 | 87.44156 | 32881 ft | 494 kts | 132° |
| 2026-05-05 03:20 | 0.36134 | 87.49127 | 32880 ft | 495 kts | 132° |
| 2026-05-05 03:21 | 0.31378 | 87.54099 | 32879 ft | 496 kts | 132° |
| 2026-05-05 03:21 | 0.26613 | 87.59082 | 32880 ft | 496 kts | 132° |
| 2026-05-05 03:22 | 0.21848 | 87.64065 | 32878 ft | 496 kts | 132° |
| 2026-05-05 03:22 | 0.17111 | 87.69018 | 32880 ft | 495 kts | 132° |
| 2026-05-05 03:23 | 0.12359 | 87.73986 | 32876 ft | 495 kts | 132° |
| 2026-05-05 03:23 | 0.07595 | 87.78968 | 32881 ft | 496 kts | 132° |
| 2026-05-05 03:24 | 0.02828 | 87.83952 | 32881 ft | 496 kts | 132° |
| 2026-05-05 03:24 | -0.01943 | 87.88941 | 32886 ft | 496 kts | 132° |
| 2026-05-05 03:25 | -0.06704 | 87.93919 | 32876 ft | 494 kts | 132° |
| 2026-05-05 03:25 | -0.11451 | 87.98882 | 32877 ft | 493 kts | 132° |
| 2026-05-05 03:26 | -0.16149 | 88.03795 | 32879 ft | 492 kts | 132° |
| 2026-05-05 03:26 | -0.20874 | 88.08735 | 32880 ft | 491 kts | 132° |
| 2026-05-05 03:27 | -0.25591 | 88.13667 | 32885 ft | 489 kts | 132° |
| 2026-05-05 03:27 | -0.30286 | 88.18577 | 32876 ft | 487 kts | 132° |
| 2026-05-05 03:28 | -0.34968 | 88.23473 | 32879 ft | 486 kts | 132° |
| 2026-05-05 03:28 | -0.39605 | 88.28322 | 32879 ft | 485 kts | 132° |
| 2026-05-05 03:29 | -0.44266 | 88.33195 | 32881 ft | 485 kts | 132° |
| 2026-05-05 03:29 | -0.48923 | 88.38066 | 32878 ft | 485 kts | 132° |
| 2026-05-05 03:30 | -0.53591 | 88.42948 | 32880 ft | 486 kts | 132° |
| 2026-05-05 03:30 | -0.58254 | 88.47824 | 32881 ft | 487 kts | 131° |
| 2026-05-05 03:31 | -0.62937 | 88.52722 | 32880 ft | 488 kts | 131° |
| 2026-05-05 03:31 | -0.67629 | 88.57629 | 32880 ft | 489 kts | 131° |
| 2026-05-05 03:32 | -0.72331 | 88.62547 | 32880 ft | 489 kts | 131° |
| 2026-05-05 03:32 | -0.77029 | 88.67461 | 32878 ft | 489 kts | 132° |
| 2026-05-05 03:33 | -0.81729 | 88.72376 | 32879 ft | 489 kts | 132° |
| 2026-05-05 03:33 | -0.86254 | 88.77109 | 32880 ft | 489 kts | 132° |
| 2026-05-05 03:34 | -0.90957 | 88.82030 | 32880 ft | 489 kts | 132° |
| 2026-05-05 03:34 | -0.95653 | 88.86943 | 32879 ft | 489 kts | 132° |
| 2026-05-05 03:35 | -1.00326 | 88.91832 | 32880 ft | 490 kts | 132° |
| 2026-05-05 03:35 | -1.05034 | 88.96756 | 32879 ft | 490 kts | 132° |
| 2026-05-05 03:36 | -1.09752 | 89.01692 | 32881 ft | 490 kts | 132° |
| 2026-05-05 03:36 | -1.13674 | 89.05795 | 32879 ft | 490 kts | 132° |
| 2026-05-05 03:37 | -1.18389 | 89.10729 | 32882 ft | 491 kts | 132° |
| 2026-05-05 03:37 | -1.23102 | 89.15662 | 32882 ft | 491 kts | 132° |
| 2026-05-05 03:38 | -1.27821 | 89.20602 | 32883 ft | 491 kts | 132° |
| 2026-05-05 03:38 | -1.32497 | 89.25496 | 32885 ft | 490 kts | 132° |
| 2026-05-05 03:39 | -1.37202 | 89.30422 | 32881 ft | 490 kts | 132° |
| 2026-05-05 03:39 | -1.41897 | 89.35337 | 32881 ft | 488 kts | 132° |
| 2026-05-05 03:40 | -1.46587 | 89.40247 | 32883 ft | 488 kts | 132° |
| 2026-05-05 03:40 | -1.51276 | 89.45157 | 32884 ft | 487 kts | 132° |
| 2026-05-05 03:41 | -1.55957 | 89.50059 | 32884 ft | 487 kts | 132° |
| 2026-05-05 03:41 | -1.60638 | 89.54960 | 32886 ft | 488 kts | 132° |
| 2026-05-05 03:42 | -1.65331 | 89.59875 | 32887 ft | 488 kts | 132° |
| 2026-05-05 03:42 | -1.69992 | 89.64757 | 32884 ft | 489 kts | 132° |
| 2026-05-05 03:43 | -1.74688 | 89.69676 | 32885 ft | 489 kts | 132° |
| 2026-05-05 03:43 | -1.79386 | 89.74597 | 32886 ft | 489 kts | 132° |
| 2026-05-05 03:44 | -1.84083 | 89.79518 | 32888 ft | 489 kts | 132° |
| 2026-05-05 03:44 | -1.88781 | 89.84440 | 32887 ft | 489 kts | 132° |
| 2026-05-05 03:45 | -1.93480 | 89.89365 | 32888 ft | 489 kts | 132° |
| 2026-05-05 03:45 | -1.98175 | 89.94286 | 32887 ft | 489 kts | 132° |
| 2026-05-05 03:46 | -2.02710 | 89.99343 | 32892 ft | 487 kts | 128° |
| 2026-05-05 03:46 | -2.07012 | 90.04513 | 32888 ft | 487 kts | 128° |
| 2026-05-05 03:47 | -2.11338 | 90.09735 | 32884 ft | 487 kts | 128° |
| 2026-05-05 03:47 | -2.15682 | 90.14951 | 32885 ft | 487 kts | 128° |
| 2026-05-05 03:48 | -2.20021 | 90.20145 | 32885 ft | 487 kts | 128° |
| 2026-05-05 03:48 | -2.24373 | 90.25350 | 32885 ft | 487 kts | 128° |
| 2026-05-05 03:49 | -2.28727 | 90.30559 | 32885 ft | 487 kts | 128° |
| 2026-05-05 03:49 | -2.33071 | 90.35758 | 32888 ft | 487 kts | 128° |
| 2026-05-05 03:50 | -2.37421 | 90.40964 | 32888 ft | 488 kts | 128° |
| 2026-05-05 03:50 | -2.41779 | 90.46182 | 32893 ft | 489 kts | 128° |
| 2026-05-05 03:51 | -2.46137 | 90.51399 | 32892 ft | 489 kts | 128° |
| 2026-05-05 03:51 | -2.50477 | 90.56596 | 32890 ft | 490 kts | 128° |
| 2026-05-05 03:52 | -2.54846 | 90.61827 | 32891 ft | 490 kts | 128° |
| 2026-05-05 03:52 | -2.59060 | 90.66874 | 32890 ft | 490 kts | 128° |
| 2026-05-05 03:53 | -2.63434 | 90.72113 | 32890 ft | 490 kts | 128° |
| 2026-05-05 03:53 | -2.67799 | 90.77342 | 32888 ft | 490 kts | 128° |
| 2026-05-05 03:54 | -2.72172 | 90.82582 | 32888 ft | 490 kts | 128° |
| 2026-05-05 03:54 | -2.76545 | 90.87821 | 32892 ft | 491 kts | 128° |
| 2026-05-05 03:55 | -2.80929 | 90.93075 | 32894 ft | 492 kts | 128° |
| 2026-05-05 03:55 | -2.85311 | 90.98326 | 32895 ft | 492 kts | 128° |
| 2026-05-05 03:56 | -2.89702 | 91.03590 | 32893 ft | 492 kts | 128° |
| 2026-05-05 03:56 | -2.94088 | 91.08848 | 32892 ft | 492 kts | 128° |
| 2026-05-05 03:57 | -2.98447 | 91.14074 | 32893 ft | 492 kts | 128° |
| 2026-05-05 03:57 | -3.02838 | 91.19340 | 32889 ft | 492 kts | 129° |
| 2026-05-05 03:58 | -3.07224 | 91.24600 | 32902 ft | 492 kts | 129° |
| 2026-05-05 03:58 | -3.11620 | 91.29873 | 32900 ft | 493 kts | 129° |
| 2026-05-05 03:59 | -3.16020 | 91.35151 | 32899 ft | 494 kts | 129° |
| 2026-05-05 03:59 | -3.20410 | 91.40418 | 32899 ft | 494 kts | 129° |
| 2026-05-05 04:00 | -3.24826 | 91.45717 | 32901 ft | 494 kts | 129° |
| 2026-05-05 04:00 | -3.29232 | 91.51006 | 32901 ft | 494 kts | 129° |
| 2026-05-05 04:01 | -3.33607 | 91.56258 | 32899 ft | 494 kts | 129° |
| 2026-05-05 04:01 | -3.38009 | 91.61542 | 32899 ft | 494 kts | 129° |
| 2026-05-05 04:02 | -3.42400 | 91.66815 | 32898 ft | 493 kts | 129° |
| 2026-05-05 04:02 | -3.46793 | 91.72090 | 32899 ft | 493 kts | 129° |
| 2026-05-05 04:03 | -3.51181 | 91.77361 | 32904 ft | 493 kts | 129° |
| 2026-05-05 04:03 | -3.55568 | 91.82630 | 32904 ft | 492 kts | 129° |
| 2026-05-05 04:04 | -3.59946 | 91.87892 | 32905 ft | 492 kts | 129° |
| 2026-05-05 04:04 | -3.64331 | 91.93161 | 32902 ft | 492 kts | 129° |
| 2026-05-05 04:05 | -3.68723 | 91.98439 | 32905 ft | 492 kts | 129° |
| 2026-05-05 04:05 | -3.73105 | 92.03708 | 32901 ft | 493 kts | 129° |
| 2026-05-05 04:06 | -3.77493 | 92.08983 | 32902 ft | 493 kts | 129° |
| 2026-05-05 04:06 | -3.81849 | 92.14222 | 32903 ft | 493 kts | 129° |
| 2026-05-05 04:07 | -3.86241 | 92.19504 | 32902 ft | 494 kts | 129° |
| 2026-05-05 04:07 | -3.90642 | 92.24798 | 32902 ft | 494 kts | 129° |
| 2026-05-05 04:08 | -3.95040 | 92.30090 | 32903 ft | 495 kts | 129° |
| 2026-05-05 04:08 | -3.99443 | 92.35389 | 32904 ft | 495 kts | 129° |
| 2026-05-05 04:09 | -4.03847 | 92.40689 | 32903 ft | 494 kts | 129° |
| 2026-05-05 04:09 | -4.08248 | 92.45987 | 32903 ft | 494 kts | 129° |
| 2026-05-05 04:10 | -4.12642 | 92.51278 | 32904 ft | 493 kts | 129° |
| 2026-05-05 04:10 | -4.17032 | 92.56564 | 32905 ft | 493 kts | 129° |
| 2026-05-05 04:11 | -4.21387 | 92.61811 | 32901 ft | 493 kts | 129° |
| 2026-05-05 04:11 | -4.25777 | 92.67099 | 32903 ft | 494 kts | 129° |
| 2026-05-05 04:12 | -4.30176 | 92.72400 | 32907 ft | 495 kts | 129° |
| 2026-05-05 04:12 | -4.34595 | 92.77726 | 32908 ft | 496 kts | 129° |
| 2026-05-05 04:13 | -4.39009 | 92.83048 | 32905 ft | 497 kts | 129° |
| 2026-05-05 04:13 | -4.43439 | 92.88389 | 32905 ft | 497 kts | 129° |
| 2026-05-05 04:14 | -4.47829 | 92.93683 | 32904 ft | 497 kts | 129° |
| 2026-05-05 04:14 | -4.52254 | 92.99020 | 32904 ft | 497 kts | 129° |
| 2026-05-05 04:15 | -4.56668 | 93.04346 | 32904 ft | 497 kts | 129° |
| 2026-05-05 04:15 | -4.61082 | 93.09672 | 32905 ft | 496 kts | 129° |
| 2026-05-05 04:16 | -4.65481 | 93.14982 | 32902 ft | 495 kts | 129° |
| 2026-05-05 04:16 | -4.69881 | 93.20294 | 32904 ft | 495 kts | 129° |
| 2026-05-05 04:17 | -4.74273 | 93.25598 | 32901 ft | 494 kts | 129° |
| 2026-05-05 04:17 | -4.78656 | 93.30891 | 32902 ft | 494 kts | 129° |
| 2026-05-05 04:18 | -4.83021 | 93.36164 | 32905 ft | 494 kts | 129° |
| 2026-05-05 04:18 | -4.87417 | 93.41476 | 32905 ft | 494 kts | 129° |
| 2026-05-05 04:19 | -4.91784 | 93.46754 | 32902 ft | 495 kts | 129° |
| 2026-05-05 04:19 | -4.96179 | 93.52067 | 32900 ft | 495 kts | 129° |
| 2026-05-05 04:20 | -5.00583 | 93.57392 | 32904 ft | 496 kts | 129° |
| 2026-05-05 04:20 | -5.04996 | 93.62729 | 32899 ft | 497 kts | 129° |
| 2026-05-05 04:21 | -5.09413 | 93.68072 | 32900 ft | 498 kts | 129° |
| 2026-05-05 04:21 | -5.13835 | 93.73422 | 32897 ft | 498 kts | 129° |
| 2026-05-05 04:22 | -5.18264 | 93.78782 | 32898 ft | 498 kts | 129° |
| 2026-05-05 04:22 | -5.22677 | 93.84125 | 32908 ft | 496 kts | 129° |
| 2026-05-05 04:23 | -5.27062 | 93.89435 | 32894 ft | 492 kts | 129° |
| 2026-05-05 04:23 | -5.30684 | 93.93821 | 32889 ft | 489 kts | 129° |
| 2026-05-05 04:24 | -5.35016 | 93.99069 | 32894 ft | 488 kts | 128° |
| 2026-05-05 04:25 | -5.41508 | 94.06936 | 32900 ft | 488 kts | 128° |
| 2026-05-05 04:25 | -5.45847 | 94.12196 | 32898 ft | 490 kts | 129° |
| 2026-05-05 04:26 | -5.50183 | 94.17454 | 32896 ft | 492 kts | 129° |
| 2026-05-05 04:26 | -5.54540 | 94.22739 | 32887 ft | 494 kts | 129° |
| 2026-05-05 04:27 | -5.58832 | 94.27944 | 32894 ft | 495 kts | 129° |
| 2026-05-05 04:27 | -5.63230 | 94.33280 | 32893 ft | 497 kts | 128° |
| 2026-05-05 04:28 | -5.67641 | 94.38634 | 32893 ft | 497 kts | 129° |
| 2026-05-05 04:28 | -5.72051 | 94.43988 | 32896 ft | 497 kts | 128° |
| 2026-05-05 04:29 | -5.76452 | 94.49332 | 32890 ft | 495 kts | 128° |
| 2026-05-05 04:29 | -5.80834 | 94.54655 | 32892 ft | 494 kts | 128° |
| 2026-05-05 04:30 | -5.85207 | 94.59968 | 32891 ft | 492 kts | 128° |
| 2026-05-05 04:30 | -5.89558 | 94.65256 | 32892 ft | 490 kts | 128° |
| 2026-05-05 04:31 | -5.93897 | 94.70531 | 32889 ft | 489 kts | 128° |
| 2026-05-05 04:31 | -5.98230 | 94.75799 | 32890 ft | 489 kts | 129° |
| 2026-05-05 04:32 | -6.02561 | 94.81068 | 32890 ft | 489 kts | 128° |
| 2026-05-05 04:32 | -6.06873 | 94.86315 | 32897 ft | 489 kts | 128° |
| 2026-05-05 04:33 | -6.11241 | 94.91631 | 32891 ft | 491 kts | 128° |
| 2026-05-05 04:33 | -6.15566 | 94.96895 | 32891 ft | 492 kts | 128° |
| 2026-05-05 04:34 | -6.19922 | 95.02199 | 32892 ft | 493 kts | 128° |
| 2026-05-05 04:34 | -6.24314 | 95.07550 | 32889 ft | 493 kts | 128° |
| 2026-05-05 04:35 | -6.28685 | 95.12874 | 32894 ft | 493 kts | 128° |
| 2026-05-05 04:35 | -6.33015 | 95.18152 | 32890 ft | 493 kts | 128° |
| 2026-05-05 04:36 | -6.37380 | 95.23472 | 32890 ft | 492 kts | 128° |
| 2026-05-05 04:36 | -6.41733 | 95.28782 | 32890 ft | 492 kts | 128° |
| 2026-05-05 04:37 | -6.46085 | 95.34090 | 32883 ft | 492 kts | 128° |
| 2026-05-05 04:37 | -6.50451 | 95.39418 | 32891 ft | 495 kts | 128° |
| 2026-05-05 04:38 | -6.54844 | 95.44780 | 32892 ft | 498 kts | 128° |
| 2026-05-05 04:38 | -6.59258 | 95.50169 | 32892 ft | 500 kts | 128° |
| 2026-05-05 04:39 | -6.63685 | 95.55576 | 32891 ft | 501 kts | 128° |
| 2026-05-05 04:39 | -6.68083 | 95.60950 | 32889 ft | 501 kts | 128° |
| 2026-05-05 04:40 | -6.72508 | 95.66357 | 32890 ft | 499 kts | 128° |
| 2026-05-05 04:40 | -6.76918 | 95.71748 | 32888 ft | 498 kts | 129° |
| 2026-05-05 04:41 | -6.81314 | 95.77125 | 32890 ft | 496 kts | 129° |
| 2026-05-05 04:41 | -6.85694 | 95.82482 | 32890 ft | 496 kts | 128° |
| 2026-05-05 04:42 | -6.90077 | 95.87847 | 32889 ft | 496 kts | 128° |
| 2026-05-05 04:42 | -6.94465 | 95.93219 | 32887 ft | 497 kts | 128° |
| 2026-05-05 04:43 | -6.98862 | 95.98603 | 32892 ft | 497 kts | 129° |
| 2026-05-05 04:43 | -7.03252 | 96.03984 | 32884 ft | 498 kts | 128° |
| 2026-05-05 04:44 | -7.07649 | 96.09382 | 32893 ft | 498 kts | 128° |
| 2026-05-05 04:44 | -7.12031 | 96.14766 | 32891 ft | 496 kts | 128° |
| 2026-05-05 04:45 | -7.16379 | 96.20110 | 32885 ft | 495 kts | 128° |
| 2026-05-05 04:45 | -7.20761 | 96.25498 | 32886 ft | 493 kts | 128° |
| 2026-05-05 04:46 | -7.25099 | 96.30833 | 32887 ft | 492 kts | 128° |
| 2026-05-05 04:46 | -7.29409 | 96.36136 | 32887 ft | 492 kts | 128° |
| 2026-05-05 04:47 | -7.33744 | 96.41471 | 32890 ft | 492 kts | 128° |
| 2026-05-05 04:47 | -7.38086 | 96.46815 | 32890 ft | 493 kts | 128° |
| 2026-05-05 04:48 | -7.42309 | 96.52016 | 32889 ft | 493 kts | 128° |
| 2026-05-05 04:48 | -7.46632 | 96.57342 | 32888 ft | 494 kts | 128° |
| 2026-05-05 04:49 | -7.50985 | 96.62706 | 32885 ft | 494 kts | 128° |
| 2026-05-05 04:49 | -7.55344 | 96.68079 | 32892 ft | 495 kts | 128° |
| 2026-05-05 04:50 | -7.59696 | 96.73446 | 32891 ft | 495 kts | 128° |
| 2026-05-05 04:50 | -7.64055 | 96.78823 | 32886 ft | 494 kts | 128° |
| 2026-05-05 04:51 | -7.68407 | 96.84195 | 32888 ft | 494 kts | 128° |
| 2026-05-05 04:51 | -7.72756 | 96.89563 | 32888 ft | 493 kts | 128° |
| 2026-05-05 04:52 | -7.77094 | 96.94921 | 32887 ft | 493 kts | 128° |
| 2026-05-05 04:52 | -7.81405 | 97.00246 | 32888 ft | 492 kts | 128° |
| 2026-05-05 04:53 | -7.85737 | 97.05599 | 32886 ft | 492 kts | 128° |
| 2026-05-05 04:53 | -7.90065 | 97.10951 | 32888 ft | 492 kts | 128° |
| 2026-05-05 04:54 | -7.94397 | 97.16308 | 32881 ft | 493 kts | 128° |
| 2026-05-05 04:54 | -7.98739 | 97.21680 | 32888 ft | 494 kts | 128° |
| 2026-05-05 04:55 | -8.03091 | 97.27066 | 32891 ft | 496 kts | 128° |
| 2026-05-05 04:55 | -8.07449 | 97.32462 | 32887 ft | 496 kts | 128° |
| 2026-05-05 04:56 | -8.11818 | 97.37874 | 32887 ft | 497 kts | 128° |
| 2026-05-05 04:56 | -8.16183 | 97.43282 | 32893 ft | 497 kts | 128° |
| 2026-05-05 04:57 | -8.20539 | 97.48682 | 32892 ft | 496 kts | 128° |
| 2026-05-05 04:57 | -8.24896 | 97.54084 | 32889 ft | 496 kts | 128° |
| 2026-05-05 04:58 | -8.29221 | 97.59449 | 32892 ft | 495 kts | 128° |
| 2026-05-05 04:58 | -8.33571 | 97.64848 | 32892 ft | 495 kts | 128° |
| 2026-05-05 04:59 | -8.37919 | 97.70246 | 32891 ft | 496 kts | 128° |
| 2026-05-05 04:59 | -8.42271 | 97.75650 | 32891 ft | 496 kts | 128° |
| 2026-05-05 05:00 | -8.46633 | 97.81070 | 32891 ft | 497 kts | 128° |
| 2026-05-05 05:00 | -8.50994 | 97.86491 | 32892 ft | 497 kts | 128° |
| 2026-05-05 05:01 | -8.55347 | 97.91903 | 32894 ft | 497 kts | 128° |
| 2026-05-05 05:01 | -8.59709 | 97.97329 | 32890 ft | 497 kts | 128° |
| 2026-05-05 05:02 | -8.64070 | 98.02756 | 32890 ft | 497 kts | 128° |
| 2026-05-05 05:02 | -8.68393 | 98.08138 | 32888 ft | 496 kts | 127° |
| 2026-05-05 05:03 | -8.72770 | 98.13590 | 32895 ft | 496 kts | 128° |
| 2026-05-05 05:03 | -8.76966 | 98.18819 | 32895 ft | 495 kts | 128° |
| 2026-05-05 05:04 | -8.81311 | 98.24233 | 32894 ft | 495 kts | 128° |
| 2026-05-05 05:04 | -8.85644 | 98.29638 | 32893 ft | 495 kts | 128° |
| 2026-05-05 05:05 | -8.89979 | 98.35045 | 32890 ft | 495 kts | 128° |
| 2026-05-05 05:05 | -8.94325 | 98.40468 | 32899 ft | 497 kts | 128° |
| 2026-05-05 05:06 | -8.98687 | 98.45914 | 32897 ft | 500 kts | 127° |
| 2026-05-05 05:06 | -9.02323 | 98.50458 | 32904 ft | 500 kts | 129° |
| 2026-05-05 05:07 | -9.06700 | 98.55926 | 32875 ft | 499 kts | 129° |
| 2026-05-05 05:07 | -9.11057 | 98.61370 | 32897 ft | 496 kts | 129° |
| 2026-05-05 05:08 | -9.15393 | 98.66793 | 32898 ft | 495 kts | 129° |
| 2026-05-05 05:08 | -9.19717 | 98.72203 | 32879 ft | 494 kts | 129° |
| 2026-05-05 05:09 | -9.24003 | 98.77567 | 32896 ft | 494 kts | 128° |
| 2026-05-05 05:09 | -9.28143 | 98.82752 | 32879 ft | 496 kts | 128° |
| 2026-05-05 05:10 | -9.32493 | 98.88203 | 32907 ft | 498 kts | 128° |
| 2026-05-05 05:10 | -9.36852 | 98.93665 | 32894 ft | 499 kts | 129° |
| 2026-05-05 05:11 | -9.41228 | 98.99151 | 32904 ft | 500 kts | 129° |
| 2026-05-05 05:11 | -9.45598 | 99.04633 | 32879 ft | 500 kts | 129° |
| 2026-05-05 05:12 | -9.49944 | 99.10086 | 32898 ft | 500 kts | 129° |
| 2026-05-05 05:12 | -9.54348 | 99.15615 | 32874 ft | 501 kts | 129° |
| 2026-05-05 05:13 | -9.58732 | 99.21122 | 32904 ft | 503 kts | 129° |
| 2026-05-05 05:13 | -9.63097 | 99.26608 | 32912 ft | 503 kts | 129° |
| 2026-05-05 05:14 | -9.67492 | 99.32134 | 32904 ft | 503 kts | 129° |
| 2026-05-05 05:14 | -9.71885 | 99.37660 | 32900 ft | 502 kts | 129° |
| 2026-05-05 05:15 | -9.76272 | 99.43181 | 33089 ft | 503 kts | 129° |
| 2026-05-05 05:15 | -9.78473 | 99.45952 | 33208 ft | 506 kts | 129° |
| 2026-05-05 05:15 | -9.80685 | 99.48735 | 33349 ft | 507 kts | 129° |
| 2026-05-05 05:15 | -9.82901 | 99.51526 | 33470 ft | 507 kts | 129° |
| 2026-05-05 05:16 | -9.85112 | 99.54311 | 33589 ft | 506 kts | 129° |
| 2026-05-05 05:16 | -9.87316 | 99.57089 | 33727 ft | 506 kts | 129° |
| 2026-05-05 05:16 | -9.89522 | 99.59870 | 33836 ft | 506 kts | 129° |
| 2026-05-05 05:16 | -9.91732 | 99.62655 | 33959 ft | 506 kts | 129° |
| 2026-05-05 05:17 | -9.93908 | 99.65398 | 34075 ft | 505 kts | 129° |
| 2026-05-05 05:17 | -9.98338 | 99.70987 | 34264 ft | 505 kts | 129° |
| 2026-05-05 05:17 | -10.00507 | 99.73724 | 34400 ft | 504 kts | 129° |
| 2026-05-05 05:18 | -10.02702 | 99.76494 | 34502 ft | 503 kts | 129° |
| 2026-05-05 05:18 | -10.04893 | 99.79260 | 34614 ft | 503 kts | 129° |
| 2026-05-05 05:18 | -10.07085 | 99.82028 | 34731 ft | 502 kts | 129° |
| 2026-05-05 05:19 | -10.11460 | 99.87556 | 34843 ft | 502 kts | 129° |
| 2026-05-05 05:19 | -10.15827 | 99.93074 | 34914 ft | 502 kts | 129° |
| 2026-05-05 05:20 | -10.20203 | 99.98607 | 34917 ft | 503 kts | 129° |
| 2026-05-05 05:20 | -10.24588 | 100.04155 | 34915 ft | 503 kts | 129° |
| 2026-05-05 05:21 | -10.28964 | 100.09693 | 34918 ft | 503 kts | 129° |
| 2026-05-05 05:21 | -10.33338 | 100.15232 | 34901 ft | 502 kts | 129° |
| 2026-05-05 05:22 | -10.37709 | 100.20770 | 34899 ft | 502 kts | 129° |
| 2026-05-05 05:22 | -10.42073 | 100.26302 | 34903 ft | 502 kts | 129° |
| 2026-05-05 05:23 | -10.46439 | 100.31838 | 34917 ft | 502 kts | 129° |
| 2026-05-05 05:23 | -10.50801 | 100.37373 | 34918 ft | 502 kts | 129° |
| 2026-05-05 05:24 | -10.55141 | 100.42883 | 34909 ft | 503 kts | 129° |
| 2026-05-05 05:24 | -10.59515 | 100.48437 | 34913 ft | 503 kts | 129° |
| 2026-05-05 05:25 | -10.63886 | 100.53992 | 34922 ft | 503 kts | 129° |
| 2026-05-05 05:25 | -10.68257 | 100.59550 | 34924 ft | 503 kts | 129° |
| 2026-05-05 05:26 | -10.72637 | 100.65121 | 34906 ft | 503 kts | 129° |
| 2026-05-05 05:26 | -10.77002 | 100.70676 | 34911 ft | 503 kts | 129° |
| 2026-05-05 05:27 | -10.81376 | 100.76246 | 34924 ft | 503 kts | 129° |
| 2026-05-05 05:27 | -10.87906 | 100.84568 | 34923 ft | 503 kts | 129° |
| 2026-05-05 05:28 | -10.92271 | 100.90134 | 34923 ft | 503 kts | 129° |
| 2026-05-05 05:28 | -10.96634 | 100.95701 | 34925 ft | 503 kts | 129° |
| 2026-05-05 05:29 | -11.00996 | 101.01274 | 34909 ft | 503 kts | 129° |
| 2026-05-05 05:29 | -11.05300 | 101.06877 | 34907 ft | 503 kts | 128° |
| 2026-05-05 05:30 | -11.09589 | 101.12507 | 34931 ft | 503 kts | 128° |
| 2026-05-05 05:30 | -11.13887 | 101.18145 | 34912 ft | 503 kts | 129° |
| 2026-05-05 05:31 | -11.18182 | 101.23770 | 34913 ft | 503 kts | 129° |
| 2026-05-05 05:31 | -11.22480 | 101.29397 | 34926 ft | 503 kts | 129° |
| 2026-05-05 05:32 | -11.26779 | 101.35028 | 34911 ft | 503 kts | 129° |
| 2026-05-05 05:32 | -11.31074 | 101.40659 | 34911 ft | 504 kts | 129° |
| 2026-05-05 05:33 | -11.35341 | 101.46256 | 34916 ft | 504 kts | 129° |
| 2026-05-05 05:33 | -11.39648 | 101.51908 | 34929 ft | 504 kts | 129° |
| 2026-05-05 05:34 | -11.43944 | 101.57551 | 34910 ft | 504 kts | 129° |
| 2026-05-05 05:34 | -11.48241 | 101.63196 | 34914 ft | 504 kts | 129° |
| 2026-05-05 05:35 | -11.52539 | 101.68845 | 34913 ft | 505 kts | 129° |
| 2026-05-05 05:35 | -11.56842 | 101.74505 | 34916 ft | 505 kts | 129° |
| 2026-05-05 05:36 | -11.61149 | 101.80173 | 34915 ft | 505 kts | 129° |
| 2026-05-05 05:36 | -11.65423 | 101.85802 | 34910 ft | 505 kts | 129° |
| 2026-05-05 05:37 | -11.69727 | 101.91473 | 34918 ft | 505 kts | 129° |
| 2026-05-05 05:37 | -11.74032 | 101.97148 | 34912 ft | 505 kts | 129° |
| 2026-05-05 05:38 | -11.78335 | 102.02824 | 34914 ft | 505 kts | 129° |
| 2026-05-05 05:38 | -11.82633 | 102.08496 | 34919 ft | 505 kts | 129° |
| 2026-05-05 05:39 | -11.86936 | 102.14178 | 34918 ft | 506 kts | 129° |
| 2026-05-05 05:39 | -11.91247 | 102.19875 | 34917 ft | 506 kts | 129° |
| 2026-05-05 05:40 | -11.95527 | 102.25534 | 34925 ft | 507 kts | 129° |
| 2026-05-05 05:40 | -11.99831 | 102.31227 | 34919 ft | 507 kts | 129° |
| 2026-05-05 05:41 | -12.04146 | 102.36940 | 34923 ft | 507 kts | 129° |
| 2026-05-05 05:41 | -12.08451 | 102.42641 | 34921 ft | 507 kts | 129° |
| 2026-05-05 05:42 | -12.12753 | 102.48342 | 34920 ft | 507 kts | 129° |
| 2026-05-05 05:42 | -12.17056 | 102.54048 | 34921 ft | 507 kts | 129° |
| 2026-05-05 05:43 | -12.21360 | 102.59759 | 34925 ft | 507 kts | 129° |
| 2026-05-05 05:43 | -12.25665 | 102.65474 | 34924 ft | 507 kts | 129° |
| 2026-05-05 05:44 | -12.29939 | 102.71151 | 34920 ft | 507 kts | 129° |
| 2026-05-05 05:44 | -12.34036 | 102.76597 | 34925 ft | 507 kts | 129° |
| 2026-05-05 05:45 | -12.38334 | 102.82313 | 34925 ft | 507 kts | 129° |
| 2026-05-05 05:45 | -12.42630 | 102.88031 | 34924 ft | 507 kts | 129° |
| 2026-05-05 05:46 | -12.46929 | 102.93754 | 34927 ft | 507 kts | 129° |
| 2026-05-05 05:46 | -12.51220 | 102.99472 | 34929 ft | 507 kts | 129° |
| 2026-05-05 05:47 | -12.55522 | 103.05207 | 34926 ft | 507 kts | 129° |
| 2026-05-05 05:47 | -12.59820 | 103.10941 | 34925 ft | 508 kts | 129° |
| 2026-05-05 05:48 | -12.64119 | 103.16679 | 34927 ft | 508 kts | 129° |
| 2026-05-05 05:48 | -12.68416 | 103.22419 | 34928 ft | 508 kts | 129° |
| 2026-05-05 05:49 | -12.72686 | 103.28127 | 34927 ft | 508 kts | 129° |
| 2026-05-05 05:49 | -12.76981 | 103.33870 | 34926 ft | 508 kts | 129° |
| 2026-05-05 05:50 | -12.81284 | 103.39628 | 34924 ft | 508 kts | 129° |
| 2026-05-05 05:50 | -12.85582 | 103.45384 | 34924 ft | 509 kts | 129° |
| 2026-05-05 05:51 | -12.89888 | 103.51153 | 34926 ft | 510 kts | 129° |
| 2026-05-05 05:51 | -12.94203 | 103.56938 | 34927 ft | 510 kts | 129° |
| 2026-05-05 05:52 | -12.98486 | 103.62685 | 34927 ft | 510 kts | 129° |
| 2026-05-05 05:52 | -13.02795 | 103.68470 | 34925 ft | 510 kts | 129° |
| 2026-05-05 05:53 | -13.07090 | 103.74239 | 34924 ft | 510 kts | 129° |
| 2026-05-05 05:53 | -13.11399 | 103.80031 | 34925 ft | 510 kts | 129° |
| 2026-05-05 05:54 | -13.14988 | 103.84859 | 34926 ft | 510 kts | 129° |
| 2026-05-05 05:54 | -13.19293 | 103.90653 | 34927 ft | 511 kts | 129° |
| 2026-05-05 05:55 | -13.23599 | 103.96452 | 34926 ft | 511 kts | 129° |
| 2026-05-05 05:55 | -13.27906 | 104.02255 | 34927 ft | 511 kts | 129° |
| 2026-05-05 05:56 | -13.32218 | 104.08070 | 34930 ft | 511 kts | 129° |
| 2026-05-05 05:56 | -13.36524 | 104.13881 | 34930 ft | 511 kts | 129° |
| 2026-05-05 05:57 | -13.40838 | 104.19705 | 34927 ft | 511 kts | 129° |
| 2026-05-05 05:57 | -13.45140 | 104.25519 | 34932 ft | 511 kts | 129° |
| 2026-05-05 05:58 | -13.49442 | 104.31336 | 34928 ft | 512 kts | 129° |
| 2026-05-05 05:58 | -13.53747 | 104.37161 | 34932 ft | 512 kts | 129° |
| 2026-05-05 05:59 | -13.58027 | 104.42955 | 34928 ft | 512 kts | 129° |
| 2026-05-05 05:59 | -13.62333 | 104.48789 | 34929 ft | 512 kts | 129° |
| 2026-05-05 06:00 | -13.66644 | 104.54634 | 34930 ft | 512 kts | 129° |
| 2026-05-05 06:00 | -13.70955 | 104.60482 | 34931 ft | 512 kts | 129° |
| 2026-05-05 06:01 | -13.75254 | 104.66319 | 34929 ft | 513 kts | 129° |
| 2026-05-05 06:01 | -13.79559 | 104.72168 | 34932 ft | 513 kts | 129° |
| 2026-05-05 06:02 | -13.83871 | 104.78030 | 34932 ft | 513 kts | 129° |
| 2026-05-05 06:02 | -13.88178 | 104.83891 | 34932 ft | 513 kts | 129° |
| 2026-05-05 06:03 | -13.92483 | 104.89753 | 34934 ft | 513 kts | 129° |
| 2026-05-05 06:03 | -13.96755 | 104.95573 | 34932 ft | 513 kts | 129° |
| 2026-05-05 06:04 | -14.01047 | 105.01443 | 34935 ft | 513 kts | 128° |
| 2026-05-05 06:04 | -14.05176 | 105.07456 | 34937 ft | 514 kts | 127° |
| 2026-05-05 06:05 | -14.09236 | 105.13539 | 34938 ft | 514 kts | 126° |
| 2026-05-05 06:05 | -14.13309 | 105.19606 | 34937 ft | 514 kts | 127° |
| 2026-05-05 06:06 | -14.17393 | 105.25647 | 34939 ft | 514 kts | 127° |
| 2026-05-05 06:06 | -14.21490 | 105.31694 | 34937 ft | 514 kts | 127° |
| 2026-05-05 06:07 | -14.25558 | 105.37704 | 34934 ft | 514 kts | 127° |
| 2026-05-05 06:07 | -14.29647 | 105.43752 | 34934 ft | 514 kts | 127° |
| 2026-05-05 06:08 | -14.33741 | 105.49812 | 34937 ft | 514 kts | 127° |
| 2026-05-05 06:08 | -14.37825 | 105.55864 | 34937 ft | 514 kts | 127° |
| 2026-05-05 06:09 | -14.41915 | 105.61930 | 34941 ft | 515 kts | 127° |
| 2026-05-05 06:09 | -14.46010 | 105.68005 | 34935 ft | 516 kts | 127° |
| 2026-05-05 06:10 | -14.50114 | 105.74099 | 34939 ft | 517 kts | 127° |
| 2026-05-05 06:10 | -14.54222 | 105.80204 | 34938 ft | 519 kts | 127° |
| 2026-05-05 06:11 | -14.58342 | 105.86331 | 34937 ft | 519 kts | 127° |
| 2026-05-05 06:11 | -14.62431 | 105.92418 | 34936 ft | 519 kts | 127° |
| 2026-05-05 06:12 | -14.66549 | 105.98551 | 34937 ft | 520 kts | 127° |
| 2026-05-05 06:12 | -14.70663 | 106.04685 | 34935 ft | 519 kts | 127° |
| 2026-05-05 06:13 | -14.74778 | 106.10823 | 34932 ft | 520 kts | 128° |
| 2026-05-05 06:13 | -14.78894 | 106.16967 | 34942 ft | 520 kts | 128° |
| 2026-05-05 06:14 | -14.83008 | 106.23114 | 34939 ft | 521 kts | 127° |
| 2026-05-05 06:14 | -14.87136 | 106.29286 | 34937 ft | 521 kts | 127° |
| 2026-05-05 06:15 | -14.91260 | 106.35458 | 34939 ft | 522 kts | 128° |
| 2026-05-05 06:15 | -14.95384 | 106.41635 | 34940 ft | 522 kts | 128° |
| 2026-05-05 06:16 | -14.99507 | 106.47813 | 34937 ft | 522 kts | 128° |
| 2026-05-05 06:16 | -15.03629 | 106.53997 | 34949 ft | 522 kts | 128° |
| 2026-05-05 06:17 | -15.07724 | 106.60144 | 34942 ft | 523 kts | 128° |
| 2026-05-05 06:17 | -15.11847 | 106.66336 | 34944 ft | 523 kts | 128° |
| 2026-05-05 06:18 | -15.15985 | 106.72559 | 34945 ft | 524 kts | 128° |
| 2026-05-05 06:18 | -15.20118 | 106.78778 | 34942 ft | 524 kts | 128° |
| 2026-05-05 06:19 | -15.24258 | 106.85013 | 34943 ft | 525 kts | 128° |
| 2026-05-05 06:19 | -15.28393 | 106.91245 | 34945 ft | 525 kts | 128° |
| 2026-05-05 06:20 | -15.32502 | 106.97444 | 34945 ft | 524 kts | 128° |
| 2026-05-05 06:20 | -15.36631 | 107.03677 | 34943 ft | 525 kts | 128° |
| 2026-05-05 06:21 | -15.40761 | 107.09917 | 34946 ft | 525 kts | 128° |
| 2026-05-05 06:21 | -15.44895 | 107.16167 | 34946 ft | 525 kts | 128° |
| 2026-05-05 06:22 | -15.49028 | 107.22421 | 34946 ft | 526 kts | 128° |
| 2026-05-05 06:22 | -15.53164 | 107.28686 | 34949 ft | 526 kts | 128° |
| 2026-05-05 06:23 | -15.57299 | 107.34955 | 34946 ft | 526 kts | 128° |
| 2026-05-05 06:23 | -15.61426 | 107.41216 | 34947 ft | 526 kts | 128° |
| 2026-05-05 06:24 | -15.65532 | 107.47450 | 34948 ft | 526 kts | 128° |
| 2026-05-05 06:24 | -15.69658 | 107.53720 | 34945 ft | 526 kts | 128° |
| 2026-05-05 06:25 | -15.73786 | 107.59998 | 34946 ft | 526 kts | 128° |
| 2026-05-05 06:25 | -15.77914 | 107.66282 | 34948 ft | 526 kts | 128° |
| 2026-05-05 06:26 | -15.82032 | 107.72557 | 34948 ft | 526 kts | 128° |
| 2026-05-05 06:26 | -15.86150 | 107.78837 | 34948 ft | 526 kts | 127° |
| 2026-05-05 06:27 | -15.92329 | 107.88269 | 34948 ft | 526 kts | 127° |
| 2026-05-05 06:28 | -15.96445 | 107.94560 | 34956 ft | 527 kts | 128° |
| 2026-05-05 06:28 | -16.00566 | 108.00868 | 34951 ft | 527 kts | 127° |
| 2026-05-05 06:29 | -16.04443 | 108.07295 | 34950 ft | 529 kts | 124° |
| 2026-05-05 06:29 | -16.08212 | 108.13886 | 34952 ft | 529 kts | 124° |
| 2026-05-05 06:30 | -16.11989 | 108.20456 | 34956 ft | 529 kts | 124° |
| 2026-05-05 06:30 | -16.15803 | 108.27010 | 34957 ft | 529 kts | 124° |
| 2026-05-05 06:31 | -16.19623 | 108.33543 | 34959 ft | 529 kts | 124° |
| 2026-05-05 06:31 | -16.23449 | 108.40092 | 34965 ft | 529 kts | 125° |
| 2026-05-05 06:32 | -16.27257 | 108.46621 | 34962 ft | 530 kts | 125° |
| 2026-05-05 06:32 | -16.31081 | 108.53188 | 34958 ft | 530 kts | 125° |
| 2026-05-05 06:33 | -16.34898 | 108.59749 | 34959 ft | 530 kts | 125° |
| 2026-05-05 06:33 | -16.38726 | 108.66334 | 34961 ft | 530 kts | 125° |
| 2026-05-05 06:34 | -16.42547 | 108.72914 | 34960 ft | 531 kts | 125° |
| 2026-05-05 06:34 | -16.46363 | 108.79492 | 34959 ft | 531 kts | 125° |
| 2026-05-05 06:35 | -16.50179 | 108.86075 | 34960 ft | 531 kts | 125° |
| 2026-05-05 06:35 | -16.53972 | 108.92624 | 34969 ft | 531 kts | 125° |
| 2026-05-05 06:36 | -16.57792 | 108.99228 | 34969 ft | 532 kts | 125° |
| 2026-05-05 06:36 | -16.61601 | 109.05816 | 34952 ft | 532 kts | 125° |
| 2026-05-05 06:37 | -16.65419 | 109.12428 | 34952 ft | 532 kts | 125° |
| 2026-05-05 06:37 | -16.69228 | 109.19031 | 34972 ft | 532 kts | 125° |
| 2026-05-05 06:38 | -16.73043 | 109.25650 | 34971 ft | 532 kts | 125° |
| 2026-05-05 06:38 | -16.76851 | 109.32262 | 34953 ft | 532 kts | 125° |
| 2026-05-05 06:39 | -16.80662 | 109.38886 | 34978 ft | 532 kts | 126° |
| 2026-05-05 06:39 | -16.84449 | 109.45477 | 34965 ft | 532 kts | 126° |
| 2026-05-05 06:40 | -16.88247 | 109.52092 | 34965 ft | 531 kts | 126° |
| 2026-05-05 06:40 | -16.92041 | 109.58706 | 34966 ft | 530 kts | 126° |
| 2026-05-05 06:41 | -16.95828 | 109.65313 | 34966 ft | 530 kts | 126° |
| 2026-05-05 06:41 | -16.99613 | 109.71925 | 34969 ft | 530 kts | 126° |
| 2026-05-05 06:42 | -17.03396 | 109.78538 | 34969 ft | 530 kts | 126° |
| 2026-05-05 06:42 | -17.06536 | 109.84032 | 34968 ft | 530 kts | 126° |
| 2026-05-05 06:43 | -17.10314 | 109.90650 | 34973 ft | 530 kts | 126° |
| 2026-05-05 06:43 | -17.14090 | 109.97268 | 34969 ft | 530 kts | 126° |
| 2026-05-05 06:44 | -17.17866 | 110.03894 | 34972 ft | 530 kts | 126° |
| 2026-05-05 06:44 | -17.21640 | 110.10525 | 34966 ft | 530 kts | 125° |
| 2026-05-05 06:45 | -17.25419 | 110.17169 | 34966 ft | 531 kts | 125° |
| 2026-05-05 06:45 | -17.29167 | 110.23765 | 34966 ft | 531 kts | 125° |
| 2026-05-05 06:46 | -17.32932 | 110.30399 | 34970 ft | 531 kts | 125° |
| 2026-05-05 06:46 | -17.36702 | 110.37048 | 34982 ft | 531 kts | 126° |
| 2026-05-05 06:47 | -17.40475 | 110.43708 | 34976 ft | 531 kts | 126° |
| 2026-05-05 06:47 | -17.44240 | 110.50361 | 34968 ft | 532 kts | 126° |
| 2026-05-05 06:48 | -17.48013 | 110.57034 | 34967 ft | 532 kts | 126° |
| 2026-05-05 06:48 | -17.51780 | 110.63704 | 34968 ft | 531 kts | 126° |
| 2026-05-05 06:49 | -17.55550 | 110.70385 | 34969 ft | 531 kts | 126° |
| 2026-05-05 06:49 | -17.59284 | 110.77010 | 34973 ft | 531 kts | 126° |
| 2026-05-05 06:50 | -17.63047 | 110.83694 | 34990 ft | 531 kts | 126° |
| 2026-05-05 06:50 | -17.66801 | 110.90367 | 34971 ft | 532 kts | 126° |
| 2026-05-05 06:51 | -17.70562 | 110.97059 | 34973 ft | 532 kts | 126° |
| 2026-05-05 06:51 | -17.74327 | 111.03765 | 34975 ft | 533 kts | 126° |
| 2026-05-05 06:52 | -17.78085 | 111.10467 | 34976 ft | 533 kts | 126° |
| 2026-05-05 06:52 | -17.81842 | 111.17173 | 34979 ft | 533 kts | 126° |
| 2026-05-05 06:53 | -17.85601 | 111.23891 | 34977 ft | 534 kts | 126° |
| 2026-05-05 06:53 | -17.89340 | 111.30578 | 34977 ft | 534 kts | 126° |
| 2026-05-05 06:54 | -17.93098 | 111.37308 | 34985 ft | 535 kts | 126° |
| 2026-05-05 06:54 | -17.96741 | 111.43839 | 34984 ft | 533 kts | 126° |
| 2026-05-05 06:55 | -18.00489 | 111.50564 | 34975 ft | 534 kts | 126° |
| 2026-05-05 06:55 | -18.04246 | 111.57310 | 34991 ft | 535 kts | 126° |
| 2026-05-05 06:56 | -18.07997 | 111.64054 | 34993 ft | 535 kts | 126° |
| 2026-05-05 06:56 | -18.11759 | 111.70826 | 34974 ft | 536 kts | 126° |
| 2026-05-05 06:57 | -18.15517 | 111.77597 | 34974 ft | 536 kts | 126° |
| 2026-05-05 06:57 | -18.19281 | 111.84387 | 34984 ft | 537 kts | 126° |
| 2026-05-05 06:58 | -18.23039 | 111.91172 | 34986 ft | 537 kts | 126° |
| 2026-05-05 06:58 | -18.26802 | 111.97973 | 34987 ft | 538 kts | 126° |
| 2026-05-05 06:59 | -18.30561 | 112.04775 | 34986 ft | 538 kts | 126° |
| 2026-05-05 06:59 | -18.34329 | 112.11602 | 34986 ft | 538 kts | 126° |
| 2026-05-05 07:00 | -18.38062 | 112.18372 | 34986 ft | 538 kts | 126° |
| 2026-05-05 07:00 | -18.41817 | 112.25188 | 34992 ft | 538 kts | 126° |
| 2026-05-05 07:01 | -18.45573 | 112.32014 | 34997 ft | 539 kts | 126° |
| 2026-05-05 07:01 | -18.49338 | 112.38862 | 34995 ft | 540 kts | 126° |
| 2026-05-05 07:02 | -18.53096 | 112.45708 | 34999 ft | 541 kts | 126° |
| 2026-05-05 07:02 | -18.56869 | 112.52587 | 34994 ft | 541 kts | 126° |
| 2026-05-05 07:03 | -18.60631 | 112.59454 | 34991 ft | 542 kts | 126° |
| 2026-05-05 07:03 | -18.64390 | 112.66325 | 35000 ft | 542 kts | 126° |
| 2026-05-05 07:04 | -18.68153 | 112.73209 | 34998 ft | 542 kts | 126° |
| 2026-05-05 07:04 | -18.71895 | 112.80061 | 35001 ft | 542 kts | 126° |
| 2026-05-05 07:05 | -18.75659 | 112.86961 | 35003 ft | 543 kts | 126° |
| 2026-05-05 07:05 | -18.79425 | 112.93874 | 35003 ft | 543 kts | 126° |
| 2026-05-05 07:06 | -18.83188 | 113.00789 | 35004 ft | 543 kts | 126° |
| 2026-05-05 07:06 | -18.86952 | 113.07715 | 35003 ft | 543 kts | 126° |
| 2026-05-05 07:07 | -18.90712 | 113.14639 | 35009 ft | 544 kts | 126° |
| 2026-05-05 07:07 | -18.94465 | 113.21559 | 35025 ft | 544 kts | 126° |
| 2026-05-05 07:08 | -18.98230 | 113.28508 | 35013 ft | 545 kts | 126° |
| 2026-05-05 07:08 | -19.01968 | 113.35416 | 35007 ft | 546 kts | 126° |
| 2026-05-05 07:09 | -19.05765 | 113.42440 | 35012 ft | 546 kts | 126° |
| 2026-05-05 07:09 | -19.09502 | 113.49364 | 35009 ft | 546 kts | 126° |
| 2026-05-05 07:10 | -19.13264 | 113.56341 | 35007 ft | 546 kts | 126° |
| 2026-05-05 07:10 | -19.17026 | 113.63325 | 35010 ft | 545 kts | 126° |
| 2026-05-05 07:11 | -19.20778 | 113.70299 | 35015 ft | 546 kts | 126° |
| 2026-05-05 07:11 | -19.24529 | 113.77278 | 35016 ft | 546 kts | 126° |
| 2026-05-05 07:12 | -19.28279 | 113.84263 | 35012 ft | 546 kts | 126° |
| 2026-05-05 07:12 | -19.32013 | 113.91229 | 35013 ft | 546 kts | 126° |
| 2026-05-05 07:13 | -19.35760 | 113.98226 | 35018 ft | 547 kts | 126° |
| 2026-05-05 07:13 | -19.39509 | 114.05237 | 35016 ft | 547 kts | 126° |
| 2026-05-05 07:14 | -19.43256 | 114.12250 | 35020 ft | 547 kts | 126° |
| 2026-05-05 07:14 | -19.47008 | 114.19284 | 35030 ft | 548 kts | 126° |
| 2026-05-05 07:15 | -19.50682 | 114.26367 | 35000 ft | 552 kts | 121° |
| 2026-05-05 07:15 | -19.53807 | 114.33831 | 35021 ft | 555 kts | 118° |
| 2026-05-05 07:16 | -19.56852 | 114.41367 | 35022 ft | 555 kts | 118° |
| 2026-05-05 07:16 | -19.59914 | 114.48883 | 35019 ft | 555 kts | 119° |
| 2026-05-05 07:17 | -19.63006 | 114.56395 | 35025 ft | 555 kts | 119° |
| 2026-05-05 07:17 | -19.66088 | 114.63868 | 35027 ft | 555 kts | 119° |
| 2026-05-05 07:18 | -19.69178 | 114.71378 | 35005 ft | 555 kts | 119° |
| 2026-05-05 07:18 | -19.72269 | 114.78905 | 35027 ft | 555 kts | 119° |
| 2026-05-05 07:19 | -19.75346 | 114.86413 | 35013 ft | 555 kts | 119° |
| 2026-05-05 07:19 | -19.78426 | 114.93938 | 35026 ft | 555 kts | 119° |
| 2026-05-05 07:20 | -19.81502 | 115.01463 | 35033 ft | 555 kts | 119° |
| 2026-05-05 07:20 | -19.84570 | 115.08979 | 35030 ft | 555 kts | 119° |
| 2026-05-05 07:21 | -19.87641 | 115.16513 | 35026 ft | 555 kts | 119° |
| 2026-05-05 07:21 | -19.90704 | 115.24039 | 35036 ft | 555 kts | 119° |
| 2026-05-05 07:22 | -19.93747 | 115.31524 | 35028 ft | 556 kts | 119° |
| 2026-05-05 07:22 | -19.96810 | 115.39070 | 35027 ft | 556 kts | 119° |
| 2026-05-05 07:23 | -19.99874 | 115.46632 | 35028 ft | 556 kts | 119° |
| 2026-05-05 07:23 | -20.02938 | 115.54204 | 35026 ft | 556 kts | 119° |
| 2026-05-05 07:24 | -20.05992 | 115.61761 | 35028 ft | 557 kts | 119° |
| 2026-05-05 07:24 | -20.09046 | 115.69327 | 35027 ft | 556 kts | 119° |
| 2026-05-05 07:25 | -20.12093 | 115.76889 | 35055 ft | 556 kts | 119° |
| 2026-05-05 07:25 | -20.15145 | 115.84472 | 35035 ft | 557 kts | 118° |
| 2026-05-05 07:26 | -20.18169 | 115.92000 | 35030 ft | 557 kts | 118° |
| 2026-05-05 07:26 | -20.21211 | 115.99581 | 35022 ft | 556 kts | 118° |
| 2026-05-05 07:27 | -20.24247 | 116.07160 | 35027 ft | 556 kts | 118° |
| 2026-05-05 07:27 | -20.27277 | 116.14735 | 35027 ft | 556 kts | 118° |
| 2026-05-05 07:28 | -20.30305 | 116.22316 | 35027 ft | 556 kts | 118° |
| 2026-05-05 07:28 | -20.33329 | 116.29897 | 35046 ft | 556 kts | 118° |
| 2026-05-05 07:29 | -20.35864 | 116.36260 | 35033 ft | 557 kts | 118° |
| 2026-05-05 07:29 | -20.38867 | 116.43809 | 35030 ft | 557 kts | 118° |
| 2026-05-05 07:30 | -20.41888 | 116.51415 | 35022 ft | 558 kts | 118° |
| 2026-05-05 07:30 | -20.46423 | 116.62853 | 35026 ft | 558 kts | 118° |
| 2026-05-05 07:31 | -20.49442 | 116.70483 | 35022 ft | 558 kts | 118° |
| 2026-05-05 07:31 | -20.52459 | 116.78119 | 35018 ft | 558 kts | 118° |
| 2026-05-05 07:32 | -20.55472 | 116.85756 | 35041 ft | 558 kts | 118° |
| 2026-05-05 07:32 | -20.58481 | 116.93391 | 35026 ft | 558 kts | 118° |
| 2026-05-05 07:33 | -20.61487 | 117.01034 | 35008 ft | 558 kts | 118° |
| 2026-05-05 07:33 | -20.64471 | 117.08632 | 35022 ft | 558 kts | 118° |
| 2026-05-05 07:34 | -20.67471 | 117.16281 | 35024 ft | 558 kts | 118° |
| 2026-05-05 07:34 | -20.70465 | 117.23929 | 35009 ft | 558 kts | 118° |
| 2026-05-05 07:35 | -20.73459 | 117.31587 | 35017 ft | 558 kts | 118° |
| 2026-05-05 07:35 | -20.76445 | 117.39235 | 35029 ft | 559 kts | 118° |
| 2026-05-05 07:36 | -20.79431 | 117.46895 | 35018 ft | 559 kts | 118° |
| 2026-05-05 07:36 | -20.82421 | 117.54580 | 35017 ft | 560 kts | 118° |
| 2026-05-05 07:37 | -20.85409 | 117.62270 | 35016 ft | 560 kts | 118° |
| 2026-05-05 07:37 | -20.88394 | 117.69962 | 35013 ft | 560 kts | 118° |
| 2026-05-05 07:38 | -20.91268 | 117.77382 | 35016 ft | 560 kts | 118° |
| 2026-05-05 07:38 | -20.94250 | 117.85094 | 35015 ft | 561 kts | 118° |
| 2026-05-05 07:39 | -20.97226 | 117.92802 | 35020 ft | 561 kts | 118° |
| 2026-05-05 07:39 | -21.00206 | 118.00532 | 35024 ft | 562 kts | 117° |
| 2026-05-05 07:40 | -21.03080 | 118.08271 | 35022 ft | 563 kts | 116° |
| 2026-05-05 07:40 | -21.05900 | 118.16096 | 35022 ft | 564 kts | 116° |
| 2026-05-05 07:41 | -21.08720 | 118.23920 | 35020 ft | 564 kts | 116° |
| 2026-05-05 07:41 | -21.11559 | 118.31755 | 35021 ft | 563 kts | 116° |
| 2026-05-05 07:42 | -21.14398 | 118.39579 | 35020 ft | 563 kts | 116° |
| 2026-05-05 07:42 | -21.17234 | 118.47408 | 35036 ft | 564 kts | 116° |
| 2026-05-05 07:43 | -21.20067 | 118.55244 | 35028 ft | 564 kts | 116° |
| 2026-05-05 07:43 | -21.22896 | 118.63088 | 35029 ft | 564 kts | 116° |
| 2026-05-05 07:44 | -21.25699 | 118.70874 | 35027 ft | 564 kts | 116° |
| 2026-05-05 07:44 | -21.28521 | 118.78723 | 35033 ft | 563 kts | 116° |
| 2026-05-05 07:45 | -21.31336 | 118.86566 | 35033 ft | 563 kts | 116° |
| 2026-05-05 07:45 | -21.34145 | 118.94405 | 35038 ft | 563 kts | 116° |
| 2026-05-05 07:46 | -21.36959 | 119.02270 | 35036 ft | 565 kts | 116° |
| 2026-05-05 07:46 | -21.39756 | 119.10103 | 35042 ft | 565 kts | 116° |
| 2026-05-05 07:47 | -21.42568 | 119.17990 | 35038 ft | 566 kts | 116° |
| 2026-05-05 07:47 | -21.45376 | 119.25880 | 35035 ft | 566 kts | 116° |
| 2026-05-05 07:48 | -21.48184 | 119.33784 | 35043 ft | 566 kts | 116° |
| 2026-05-05 07:48 | -21.50985 | 119.41679 | 35043 ft | 566 kts | 116° |
| 2026-05-05 07:49 | -21.53785 | 119.49588 | 35067 ft | 566 kts | 116° |
| 2026-05-05 07:49 | -21.56584 | 119.57504 | 35039 ft | 567 kts | 115° |
| 2026-05-05 07:50 | -21.59377 | 119.65420 | 35045 ft | 567 kts | 115° |
| 2026-05-05 07:50 | -21.62171 | 119.73350 | 35045 ft | 567 kts | 115° |
| 2026-05-05 07:51 | -21.64959 | 119.81279 | 35051 ft | 567 kts | 115° |
| 2026-05-05 07:51 | -21.67744 | 119.89213 | 35045 ft | 567 kts | 115° |
| 2026-05-05 07:52 | -21.70528 | 119.97155 | 35052 ft | 567 kts | 115° |
| 2026-05-05 07:52 | -21.73288 | 120.05047 | 35051 ft | 568 kts | 115° |
| 2026-05-05 07:53 | -21.76062 | 120.12990 | 35047 ft | 567 kts | 115° |
| 2026-05-05 07:53 | -21.78831 | 120.20935 | 35058 ft | 567 kts | 115° |
| 2026-05-05 07:54 | -21.81595 | 120.28878 | 35049 ft | 567 kts | 115° |
| 2026-05-05 07:54 | -21.84357 | 120.36828 | 35052 ft | 566 kts | 115° |
| 2026-05-05 07:55 | -21.87107 | 120.44757 | 35052 ft | 566 kts | 115° |
| 2026-05-05 07:55 | -21.89860 | 120.52711 | 35092 ft | 566 kts | 115° |
| 2026-05-05 07:56 | -21.92606 | 120.60656 | 35069 ft | 567 kts | 115° |
| 2026-05-05 07:56 | -21.95354 | 120.68621 | 35066 ft | 567 kts | 115° |
| 2026-05-05 07:57 | -21.98101 | 120.76600 | 35049 ft | 568 kts | 115° |
| 2026-05-05 07:57 | -22.00848 | 120.84594 | 35069 ft | 568 kts | 115° |
| 2026-05-05 07:58 | -22.03589 | 120.92583 | 35068 ft | 568 kts | 115° |
| 2026-05-05 07:58 | -22.06327 | 121.00577 | 35064 ft | 569 kts | 115° |
| 2026-05-05 07:59 | -22.09046 | 121.08532 | 35071 ft | 569 kts | 115° |
| 2026-05-05 07:59 | -22.11778 | 121.16538 | 35064 ft | 569 kts | 115° |
| 2026-05-05 08:00 | -22.14513 | 121.24567 | 35066 ft | 570 kts | 115° |
| 2026-05-05 08:00 | -22.17241 | 121.32591 | 35064 ft | 570 kts | 114° |
| 2026-05-05 08:01 | -22.19968 | 121.40628 | 35066 ft | 570 kts | 114° |
| 2026-05-05 08:01 | -22.22689 | 121.48660 | 35059 ft | 570 kts | 114° |
| 2026-05-05 08:02 | -22.25408 | 121.56705 | 35086 ft | 570 kts | 114° |
| 2026-05-05 08:02 | -22.28119 | 121.64737 | 35065 ft | 571 kts | 114° |
| 2026-05-05 08:03 | -22.30817 | 121.72748 | 35063 ft | 571 kts | 114° |
| 2026-05-05 08:03 | -22.33527 | 121.80810 | 35071 ft | 572 kts | 114° |
| 2026-05-05 08:04 | -22.36141 | 121.88535 | 35066 ft | 571 kts | 115° |
| 2026-05-05 08:04 | -22.38976 | 121.96530 | 35071 ft | 571 kts | 116° |
| 2026-05-05 08:05 | -22.41852 | 122.04539 | 35097 ft | 571 kts | 115° |
| 2026-05-05 08:05 | -22.44696 | 122.12526 | 35069 ft | 571 kts | 115° |
| 2026-05-05 08:06 | -22.47532 | 122.20556 | 35075 ft | 571 kts | 115° |
| 2026-05-05 08:06 | -22.50360 | 122.28588 | 35068 ft | 571 kts | 115° |
| 2026-05-05 08:07 | -22.53179 | 122.36606 | 35063 ft | 570 kts | 115° |
| 2026-05-05 08:07 | -22.55981 | 122.44585 | 35068 ft | 570 kts | 115° |
| 2026-05-05 08:08 | -22.58795 | 122.52610 | 35097 ft | 570 kts | 115° |
| 2026-05-05 08:08 | -22.61608 | 122.60649 | 35064 ft | 571 kts | 115° |
| 2026-05-05 08:09 | -22.64410 | 122.68671 | 35062 ft | 571 kts | 115° |
| 2026-05-05 08:09 | -22.67220 | 122.76732 | 35068 ft | 571 kts | 115° |
| 2026-05-05 08:10 | -22.70023 | 122.84787 | 35064 ft | 571 kts | 115° |
| 2026-05-05 08:10 | -22.72827 | 122.92859 | 35074 ft | 571 kts | 115° |
| 2026-05-05 08:11 | -22.75624 | 123.00926 | 35098 ft | 572 kts | 115° |
| 2026-05-05 08:11 | -22.78416 | 123.08993 | 35068 ft | 572 kts | 114° |
| 2026-05-05 08:12 | -22.81185 | 123.17012 | 35063 ft | 571 kts | 114° |
| 2026-05-05 08:12 | -22.83966 | 123.25077 | 35065 ft | 571 kts | 114° |
| 2026-05-05 08:13 | -22.86736 | 123.33127 | 35070 ft | 570 kts | 114° |
| 2026-05-05 08:13 | -22.89509 | 123.41198 | 35069 ft | 570 kts | 114° |
| 2026-05-05 08:14 | -22.91825 | 123.47953 | 35097 ft | 570 kts | 114° |
| 2026-05-05 08:14 | -22.94572 | 123.55978 | 35079 ft | 570 kts | 114° |
| 2026-05-05 08:15 | -22.97334 | 123.64063 | 35066 ft | 570 kts | 114° |
| 2026-05-05 08:15 | -23.00085 | 123.72130 | 35063 ft | 569 kts | 114° |
| 2026-05-05 08:16 | -23.02827 | 123.80185 | 35073 ft | 569 kts | 114° |
| 2026-05-05 08:16 | -23.05567 | 123.88251 | 35077 ft | 569 kts | 114° |
| 2026-05-05 08:17 | -23.08302 | 123.96314 | 35124 ft | 569 kts | 114° |
| 2026-05-05 08:17 | -23.09671 | 124.00359 | 35243 ft | 570 kts | 114° |
| 2026-05-05 08:17 | -23.11041 | 124.04407 | 35365 ft | 571 kts | 114° |
| 2026-05-05 08:18 | -23.12408 | 124.08452 | 35471 ft | 572 kts | 114° |
| 2026-05-05 08:18 | -23.13779 | 124.12511 | 35599 ft | 573 kts | 114° |
| 2026-05-05 08:18 | -23.15135 | 124.16531 | 35711 ft | 574 kts | 114° |
| 2026-05-05 08:18 | -23.16523 | 124.20651 | 35835 ft | 574 kts | 114° |
| 2026-05-05 08:19 | -23.17878 | 124.24677 | 35939 ft | 575 kts | 114° |
| 2026-05-05 08:19 | -23.19249 | 124.28753 | 36056 ft | 575 kts | 114° |
| 2026-05-05 08:19 | -23.20622 | 124.32841 | 36173 ft | 575 kts | 114° |
| 2026-05-05 08:19 | -23.22009 | 124.36974 | 36293 ft | 575 kts | 114° |
| 2026-05-05 08:20 | -23.23379 | 124.41059 | 36467 ft | 575 kts | 114° |
| 2026-05-05 08:20 | -23.24732 | 124.45098 | 36567 ft | 575 kts | 114° |
| 2026-05-05 08:20 | -23.26095 | 124.49171 | 36679 ft | 574 kts | 114° |
| 2026-05-05 08:20 | -23.27458 | 124.53248 | 36802 ft | 574 kts | 114° |
| 2026-05-05 08:21 | -23.28826 | 124.57343 | 36920 ft | 573 kts | 114° |
| 2026-05-05 08:21 | -23.30184 | 124.61412 | 37001 ft | 573 kts | 114° |
| 2026-05-05 08:21 | -23.32902 | 124.69570 | 37062 ft | 573 kts | 114° |
| 2026-05-05 08:22 | -23.35614 | 124.77727 | 37080 ft | 572 kts | 114° |
| 2026-05-05 08:22 | -23.38317 | 124.85870 | 37084 ft | 572 kts | 114° |
| 2026-05-05 08:23 | -23.40997 | 124.93962 | 37092 ft | 572 kts | 114° |
| 2026-05-05 08:23 | -23.43841 | 125.02035 | 37070 ft | 570 kts | 117° |
| 2026-05-05 08:24 | -23.46937 | 125.09987 | 37079 ft | 569 kts | 118° |
| 2026-05-05 08:24 | -23.50064 | 125.17923 | 37085 ft | 570 kts | 118° |
| 2026-05-05 08:25 | -23.53160 | 125.25884 | 37119 ft | 570 kts | 117° |
| 2026-05-05 08:25 | -23.56230 | 125.33860 | 37078 ft | 571 kts | 117° |
| 2026-05-05 08:26 | -23.59290 | 125.41844 | 37091 ft | 570 kts | 117° |
| 2026-05-05 08:26 | -23.62329 | 125.49776 | 37102 ft | 570 kts | 117° |
| 2026-05-05 08:27 | -23.65386 | 125.57760 | 37083 ft | 570 kts | 117° |
| 2026-05-05 08:27 | -23.68432 | 125.65732 | 37093 ft | 569 kts | 117° |
| 2026-05-05 08:28 | -23.71296 | 125.73237 | 37092 ft | 569 kts | 117° |
| 2026-05-05 08:28 | -23.74332 | 125.81209 | 37088 ft | 568 kts | 117° |
| 2026-05-05 08:29 | -23.77367 | 125.89196 | 37096 ft | 568 kts | 117° |
| 2026-05-05 08:30 | -23.81895 | 126.01135 | 37093 ft | 567 kts | 117° |
| 2026-05-05 08:30 | -23.84902 | 126.09081 | 37135 ft | 567 kts | 117° |
| 2026-05-05 08:31 | -23.87898 | 126.17012 | 37104 ft | 567 kts | 117° |
| 2026-05-05 08:31 | -23.90904 | 126.24986 | 37109 ft | 567 kts | 117° |
| 2026-05-05 08:32 | -23.93901 | 126.32952 | 37099 ft | 566 kts | 117° |
| 2026-05-05 08:32 | -23.96889 | 126.40908 | 37105 ft | 565 kts | 117° |
| 2026-05-05 08:33 | -23.99874 | 126.48867 | 37133 ft | 565 kts | 116° |
| 2026-05-05 08:33 | -24.02853 | 126.56827 | 37108 ft | 565 kts | 116° |
| 2026-05-05 08:34 | -24.05825 | 126.64783 | 37114 ft | 564 kts | 116° |
| 2026-05-05 08:34 | -24.08790 | 126.72737 | 37116 ft | 564 kts | 116° |
| 2026-05-05 08:35 | -24.11732 | 126.80642 | 37108 ft | 563 kts | 116° |
| 2026-05-05 08:35 | -24.14683 | 126.88583 | 37151 ft | 563 kts | 116° |
| 2026-05-05 08:36 | -24.17633 | 126.96536 | 37121 ft | 563 kts | 116° |
| 2026-05-05 08:36 | -24.20572 | 127.04481 | 37115 ft | 562 kts | 116° |
| 2026-05-05 08:37 | -24.23501 | 127.12409 | 37127 ft | 561 kts | 116° |
| 2026-05-05 08:37 | -24.26430 | 127.20352 | 37124 ft | 562 kts | 116° |
| 2026-05-05 08:38 | -24.29352 | 127.28291 | 37146 ft | 561 kts | 116° |
| 2026-05-05 08:38 | -24.32270 | 127.36233 | 37127 ft | 561 kts | 116° |
| 2026-05-05 08:39 | -24.35173 | 127.44152 | 37125 ft | 560 kts | 116° |
| 2026-05-05 08:39 | -24.38073 | 127.52075 | 37115 ft | 559 kts | 116° |
| 2026-05-05 08:40 | -24.40949 | 127.59947 | 37128 ft | 559 kts | 116° |
| 2026-05-05 08:40 | -24.43834 | 127.67860 | 37150 ft | 559 kts | 115° |
| 2026-05-05 08:41 | -24.46717 | 127.75783 | 37138 ft | 557 kts | 116° |
| 2026-05-05 08:41 | -24.49569 | 127.83636 | 37138 ft | 556 kts | 116° |
| 2026-05-05 08:42 | -24.52434 | 127.91536 | 37140 ft | 556 kts | 115° |
| 2026-05-05 08:42 | -24.55289 | 127.99426 | 37139 ft | 555 kts | 116° |
| 2026-05-05 08:43 | -24.58131 | 128.07293 | 37132 ft | 555 kts | 115° |
| 2026-05-05 08:43 | -24.60977 | 128.15188 | 37136 ft | 554 kts | 115° |
| 2026-05-05 08:44 | -24.63791 | 128.23010 | 37132 ft | 554 kts | 115° |
| 2026-05-05 08:44 | -24.66637 | 128.30934 | 37155 ft | 554 kts | 115° |
| 2026-05-05 08:45 | -24.69445 | 128.38766 | 37137 ft | 554 kts | 115° |
| 2026-05-05 08:45 | -24.72264 | 128.46645 | 37155 ft | 553 kts | 115° |
| 2026-05-05 08:46 | -24.75072 | 128.54512 | 37153 ft | 551 kts | 115° |
| 2026-05-05 08:46 | -24.77868 | 128.62358 | 37153 ft | 549 kts | 115° |
| 2026-05-05 08:47 | -24.80647 | 128.70169 | 37150 ft | 548 kts | 115° |
| 2026-05-05 08:47 | -24.83424 | 128.77990 | 37157 ft | 548 kts | 115° |
| 2026-05-05 08:48 | -24.86199 | 128.85818 | 37167 ft | 549 kts | 115° |
| 2026-05-05 08:48 | -24.88972 | 128.93660 | 37168 ft | 550 kts | 115° |
| 2026-05-05 08:49 | -24.91747 | 129.01522 | 37167 ft | 552 kts | 114° |
| 2026-05-05 08:49 | -24.94513 | 129.09372 | 37170 ft | 553 kts | 114° |
| 2026-05-05 08:50 | -24.97293 | 129.17282 | 37186 ft | 553 kts | 114° |
| 2026-05-05 08:50 | -25.00085 | 129.25178 | 37176 ft | 552 kts | 116° |
| 2026-05-05 08:51 | -25.03347 | 129.32778 | 37182 ft | 547 kts | 120° |
| 2026-05-05 08:51 | -25.06732 | 129.40269 | 37166 ft | 546 kts | 120° |
| 2026-05-05 08:52 | -25.10082 | 129.47729 | 37207 ft | 545 kts | 120° |
| 2026-05-05 08:52 | -25.13418 | 129.55253 | 37190 ft | 544 kts | 119° |
| 2026-05-05 08:53 | -25.16722 | 129.62753 | 37178 ft | 542 kts | 119° |
| 2026-05-05 08:53 | -25.20016 | 129.70240 | 37184 ft | 541 kts | 119° |
| 2026-05-05 08:54 | -25.23302 | 129.77715 | 37186 ft | 541 kts | 119° |
| 2026-05-05 08:54 | -25.26584 | 129.85192 | 37200 ft | 540 kts | 119° |
| 2026-05-05 08:55 | -25.29856 | 129.92658 | 37192 ft | 539 kts | 119° |
| 2026-05-05 08:55 | -25.33119 | 130.00116 | 37188 ft | 538 kts | 119° |
| 2026-05-05 08:56 | -25.36350 | 130.07512 | 37182 ft | 538 kts | 119° |
| 2026-05-05 08:56 | -25.39598 | 130.14959 | 37199 ft | 538 kts | 118° |
| 2026-05-05 08:57 | -25.42842 | 130.22413 | 37194 ft | 536 kts | 118° |
| 2026-05-05 08:57 | -25.46070 | 130.29842 | 37187 ft | 535 kts | 119° |
| 2026-05-05 08:58 | -25.49289 | 130.37262 | 37197 ft | 535 kts | 118° |
| 2026-05-05 08:58 | -25.52490 | 130.44652 | 37212 ft | 535 kts | 118° |
| 2026-05-05 08:59 | -25.55717 | 130.52117 | 37193 ft | 534 kts | 118° |
| 2026-05-05 08:59 | -25.58918 | 130.59533 | 37206 ft | 533 kts | 118° |
| 2026-05-05 09:00 | -25.62114 | 130.66951 | 37208 ft | 533 kts | 118° |
| 2026-05-05 09:00 | -25.65285 | 130.74322 | 37230 ft | 533 kts | 118° |
| 2026-05-05 09:01 | -25.67952 | 130.80533 | 37216 ft | 532 kts | 118° |
| 2026-05-05 09:01 | -25.71112 | 130.87903 | 37208 ft | 532 kts | 118° |
| 2026-05-05 09:02 | -25.74286 | 130.95316 | 37211 ft | 531 kts | 118° |
| 2026-05-05 09:02 | -25.77444 | 131.02706 | 37239 ft | 531 kts | 118° |
| 2026-05-05 09:03 | -25.80604 | 131.10113 | 37222 ft | 531 kts | 118° |
| 2026-05-05 09:03 | -25.83773 | 131.17556 | 37216 ft | 531 kts | 118° |
| 2026-05-05 09:04 | -25.86922 | 131.24963 | 37221 ft | 531 kts | 117° |
| 2026-05-05 09:04 | -25.90068 | 131.32376 | 37226 ft | 531 kts | 117° |
| 2026-05-05 09:05 | -25.93218 | 131.39811 | 37231 ft | 531 kts | 117° |
| 2026-05-05 09:05 | -25.96360 | 131.47239 | 37223 ft | 531 kts | 117° |
| 2026-05-05 09:06 | -25.99473 | 131.54613 | 37229 ft | 531 kts | 117° |
| 2026-05-05 09:06 | -26.02569 | 131.61959 | 37228 ft | 531 kts | 117° |
| 2026-05-05 09:07 | -26.05701 | 131.69404 | 37238 ft | 531 kts | 117° |
| 2026-05-05 09:07 | -26.08831 | 131.76856 | 37247 ft | 531 kts | 117° |
| 2026-05-05 09:08 | -26.11959 | 131.84316 | 37236 ft | 531 kts | 117° |
| 2026-05-05 09:08 | -26.15075 | 131.91762 | 37243 ft | 531 kts | 117° |
| 2026-05-05 09:09 | -26.18171 | 131.99174 | 37232 ft | 531 kts | 117° |
| 2026-05-05 09:09 | -26.21280 | 132.06628 | 37245 ft | 531 kts | 117° |
| 2026-05-05 09:10 | -26.24391 | 132.14101 | 37240 ft | 531 kts | 117° |
| 2026-05-05 09:10 | -26.27497 | 132.21576 | 37252 ft | 532 kts | 117° |
| 2026-05-05 09:11 | -26.30603 | 132.29061 | 37246 ft | 532 kts | 117° |
| 2026-05-05 09:11 | -26.33700 | 132.36543 | 37244 ft | 531 kts | 117° |
| 2026-05-05 09:12 | -26.36792 | 132.44022 | 37240 ft | 531 kts | 117° |
| 2026-05-05 09:12 | -26.39880 | 132.51506 | 37264 ft | 531 kts | 117° |
| 2026-05-05 09:13 | -26.42961 | 132.58987 | 37256 ft | 531 kts | 117° |
| 2026-05-05 09:13 | -26.46041 | 132.66480 | 37251 ft | 531 kts | 117° |
| 2026-05-05 09:14 | -26.49100 | 132.73932 | 37252 ft | 530 kts | 117° |
| 2026-05-05 09:14 | -26.52164 | 132.81412 | 37274 ft | 530 kts | 117° |
| 2026-05-05 09:15 | -26.55232 | 132.88916 | 37262 ft | 530 kts | 117° |
| 2026-05-05 09:15 | -26.58293 | 132.96416 | 37254 ft | 530 kts | 117° |
| 2026-05-05 09:16 | -26.61348 | 133.03914 | 37249 ft | 530 kts | 117° |
| 2026-05-05 09:16 | -26.64398 | 133.11414 | 37262 ft | 529 kts | 117° |
| 2026-05-05 09:17 | -26.67438 | 133.18903 | 37259 ft | 529 kts | 117° |
| 2026-05-05 09:17 | -26.70438 | 133.26307 | 37246 ft | 529 kts | 117° |
| 2026-05-05 09:18 | -26.73467 | 133.33796 | 37263 ft | 529 kts | 117° |
| 2026-05-05 09:18 | -26.76494 | 133.41294 | 37258 ft | 528 kts | 116° |
| 2026-05-05 09:19 | -26.79519 | 133.48801 | 37258 ft | 528 kts | 116° |
| 2026-05-05 09:19 | -26.82521 | 133.56265 | 37255 ft | 528 kts | 116° |
| 2026-05-05 09:20 | -26.85532 | 133.63763 | 37247 ft | 528 kts | 116° |
| 2026-05-05 09:20 | -26.88521 | 133.71223 | 37255 ft | 528 kts | 116° |
| 2026-05-05 09:21 | -26.91525 | 133.78731 | 37262 ft | 527 kts | 116° |
| 2026-05-05 09:21 | -26.94512 | 133.86214 | 37247 ft | 527 kts | 116° |
| 2026-05-05 09:22 | -26.97508 | 133.93731 | 37302 ft | 527 kts | 116° |
| 2026-05-05 09:22 | -27.00529 | 134.01236 | 37263 ft | 526 kts | 118° |
| 2026-05-05 09:23 | -27.03818 | 134.08561 | 37252 ft | 525 kts | 120° |
| 2026-05-05 09:23 | -27.07186 | 134.15836 | 37257 ft | 525 kts | 120° |
| 2026-05-05 09:24 | -27.10537 | 134.23127 | 37263 ft | 525 kts | 120° |
| 2026-05-05 09:24 | -27.13856 | 134.30423 | 37260 ft | 525 kts | 120° |
| 2026-05-05 09:25 | -27.17167 | 134.37740 | 37259 ft | 525 kts | 120° |
| 2026-05-05 09:25 | -27.20443 | 134.44990 | 37272 ft | 525 kts | 120° |
| 2026-05-05 09:26 | -27.23752 | 134.52321 | 37261 ft | 524 kts | 119° |
| 2026-05-05 09:26 | -27.27045 | 134.59628 | 37260 ft | 524 kts | 119° |
| 2026-05-05 09:27 | -27.30333 | 134.66935 | 37252 ft | 524 kts | 119° |
| 2026-05-05 09:27 | -27.33619 | 134.74252 | 37256 ft | 524 kts | 119° |
| 2026-05-05 09:28 | -27.36905 | 134.81582 | 37257 ft | 524 kts | 119° |
| 2026-05-05 09:28 | -27.40163 | 134.88861 | 37254 ft | 524 kts | 119° |
| 2026-05-05 09:29 | -27.43437 | 134.96191 | 37274 ft | 524 kts | 119° |
| 2026-05-05 09:29 | -27.46713 | 135.03536 | 37263 ft | 525 kts | 119° |
| 2026-05-05 09:30 | -27.49984 | 135.10883 | 37254 ft | 525 kts | 119° |
| 2026-05-05 09:30 | -27.53251 | 135.18235 | 37259 ft | 524 kts | 119° |
| 2026-05-05 09:31 | -27.56508 | 135.25578 | 37255 ft | 524 kts | 119° |
| 2026-05-05 09:31 | -27.59767 | 135.32939 | 37255 ft | 524 kts | 119° |
| 2026-05-05 09:32 | -27.63017 | 135.40291 | 37265 ft | 524 kts | 119° |
| 2026-05-05 09:32 | -27.66267 | 135.47656 | 37253 ft | 524 kts | 119° |
| 2026-05-05 09:33 | -27.69511 | 135.55023 | 37250 ft | 524 kts | 119° |
| 2026-05-05 09:33 | -27.72754 | 135.62399 | 37258 ft | 524 kts | 118° |
| 2026-05-05 09:34 | -27.75989 | 135.69770 | 37256 ft | 524 kts | 118° |
| 2026-05-05 09:34 | -27.79197 | 135.77094 | 37255 ft | 524 kts | 118° |
| 2026-05-05 09:35 | -27.82429 | 135.84485 | 37252 ft | 524 kts | 118° |
| 2026-05-05 09:35 | -27.87264 | 135.95568 | 37244 ft | 524 kts | 118° |
| 2026-05-05 09:36 | -27.90486 | 136.02970 | 37260 ft | 525 kts | 118° |
| 2026-05-05 09:36 | -27.93708 | 136.10385 | 37265 ft | 525 kts | 118° |
| 2026-05-05 09:37 | -27.96898 | 136.17741 | 37242 ft | 525 kts | 118° |
| 2026-05-05 09:37 | -28.00132 | 136.25212 | 37260 ft | 525 kts | 118° |
| 2026-05-05 09:38 | -28.03321 | 136.32591 | 37252 ft | 525 kts | 118° |
| 2026-05-05 09:38 | -28.06525 | 136.40021 | 37248 ft | 525 kts | 118° |
| 2026-05-05 09:39 | -28.09722 | 136.47446 | 37242 ft | 525 kts | 118° |
| 2026-05-05 09:39 | -28.12913 | 136.54873 | 37259 ft | 524 kts | 118° |
| 2026-05-05 09:40 | -28.16105 | 136.62316 | 37254 ft | 524 kts | 118° |
| 2026-05-05 09:40 | -28.19287 | 136.69748 | 37252 ft | 524 kts | 118° |
| 2026-05-05 09:41 | -28.22493 | 136.77163 | 37256 ft | 523 kts | 121° |
| 2026-05-05 09:41 | -28.25990 | 136.84353 | 37251 ft | 523 kts | 122° |
| 2026-05-05 09:42 | -28.29607 | 136.91565 | 37257 ft | 523 kts | 122° |
| 2026-05-05 09:42 | -28.33041 | 136.98458 | 37260 ft | 523 kts | 122° |
| 2026-05-05 09:43 | -28.36569 | 137.05612 | 37253 ft | 523 kts | 122° |
| 2026-05-05 09:43 | -28.40116 | 137.12840 | 37254 ft | 524 kts | 122° |
| 2026-05-05 09:44 | -28.43660 | 137.20076 | 37253 ft | 524 kts | 122° |
| 2026-05-05 09:44 | -28.47205 | 137.27321 | 37250 ft | 524 kts | 122° |
| 2026-05-05 09:45 | -28.50742 | 137.34561 | 37248 ft | 525 kts | 122° |
| 2026-05-05 09:45 | -28.54286 | 137.41828 | 37250 ft | 525 kts | 122° |
| 2026-05-05 09:46 | -28.57222 | 137.47856 | 37247 ft | 525 kts | 121° |
| 2026-05-05 09:46 | -28.60755 | 137.55125 | 37248 ft | 525 kts | 121° |
| 2026-05-05 09:47 | -28.64290 | 137.62410 | 37253 ft | 525 kts | 121° |
| 2026-05-05 09:47 | -28.67810 | 137.69678 | 37244 ft | 525 kts | 121° |
| 2026-05-05 09:48 | -28.71333 | 137.76964 | 37248 ft | 525 kts | 121° |
| 2026-05-05 09:48 | -28.74842 | 137.84234 | 37272 ft | 524 kts | 121° |
| 2026-05-05 09:49 | -28.78355 | 137.91526 | 37243 ft | 524 kts | 121° |
| 2026-05-05 09:49 | -28.81853 | 137.98800 | 37236 ft | 522 kts | 121° |
| 2026-05-05 09:50 | -28.85340 | 138.06063 | 37246 ft | 522 kts | 121° |
| 2026-05-05 09:50 | -28.88818 | 138.13319 | 37239 ft | 521 kts | 121° |
| 2026-05-05 09:51 | -28.92295 | 138.20589 | 37243 ft | 520 kts | 121° |
| 2026-05-05 09:51 | -28.95761 | 138.27846 | 37241 ft | 521 kts | 121° |
| 2026-05-05 09:52 | -28.99225 | 138.35113 | 37241 ft | 521 kts | 121° |
| 2026-05-05 09:52 | -29.02691 | 138.42399 | 37239 ft | 522 kts | 121° |
| 2026-05-05 09:53 | -29.06159 | 138.49700 | 37247 ft | 522 kts | 121° |
| 2026-05-05 09:53 | -29.09621 | 138.57004 | 37244 ft | 523 kts | 121° |
| 2026-05-05 09:54 | -29.13059 | 138.64269 | 37245 ft | 523 kts | 121° |
| 2026-05-05 09:54 | -29.16524 | 138.71603 | 37248 ft | 523 kts | 120° |
| 2026-05-05 09:55 | -29.19981 | 138.78936 | 37246 ft | 523 kts | 120° |
| 2026-05-05 09:55 | -29.23434 | 138.86273 | 37248 ft | 523 kts | 120° |
| 2026-05-05 09:56 | -29.26884 | 138.93616 | 37249 ft | 523 kts | 120° |
| 2026-05-05 09:56 | -29.30318 | 139.00941 | 37251 ft | 522 kts | 120° |
| 2026-05-05 09:57 | -29.33730 | 139.08231 | 37247 ft | 522 kts | 120° |
| 2026-05-05 09:57 | -29.37157 | 139.15565 | 37249 ft | 522 kts | 120° |
| 2026-05-05 09:58 | -29.40583 | 139.22913 | 37254 ft | 522 kts | 120° |
| 2026-05-05 09:58 | -29.44001 | 139.30256 | 37255 ft | 522 kts | 120° |
| 2026-05-05 09:59 | -29.47423 | 139.37622 | 37253 ft | 522 kts | 120° |
| 2026-05-05 09:59 | -29.50836 | 139.44981 | 37252 ft | 522 kts | 120° |
| 2026-05-05 10:00 | -29.54245 | 139.52346 | 37253 ft | 523 kts | 120° |
| 2026-05-05 10:00 | -29.57656 | 139.59731 | 37257 ft | 523 kts | 120° |
| 2026-05-05 10:01 | -29.61062 | 139.67117 | 37257 ft | 523 kts | 120° |
| 2026-05-05 10:01 | -29.64460 | 139.74500 | 37256 ft | 523 kts | 120° |
| 2026-05-05 10:02 | -29.67859 | 139.81899 | 37256 ft | 523 kts | 120° |
| 2026-05-05 10:02 | -29.71252 | 139.89292 | 37260 ft | 523 kts | 120° |
| 2026-05-05 10:03 | -29.74651 | 139.96705 | 37255 ft | 523 kts | 120° |
| 2026-05-05 10:03 | -29.78035 | 140.04100 | 37255 ft | 523 kts | 120° |
| 2026-05-05 10:04 | -29.81398 | 140.11467 | 37270 ft | 522 kts | 119° |
| 2026-05-05 10:04 | -29.84792 | 140.18916 | 37253 ft | 521 kts | 119° |
| 2026-05-05 10:05 | -29.88129 | 140.26255 | 37258 ft | 520 kts | 119° |
| 2026-05-05 10:05 | -29.91479 | 140.33635 | 37250 ft | 519 kts | 119° |
| 2026-05-05 10:06 | -29.94656 | 140.40647 | 37253 ft | 518 kts | 119° |
| 2026-05-05 10:06 | -29.97991 | 140.48019 | 37252 ft | 518 kts | 119° |
| 2026-05-05 10:07 | -30.01320 | 140.55395 | 37251 ft | 518 kts | 119° |
| 2026-05-05 10:07 | -30.04640 | 140.62765 | 37252 ft | 519 kts | 119° |
| 2026-05-05 10:08 | -30.07962 | 140.70151 | 37255 ft | 519 kts | 119° |
| 2026-05-05 10:08 | -30.11286 | 140.77559 | 37254 ft | 519 kts | 119° |
| 2026-05-05 10:09 | -30.14606 | 140.84971 | 37253 ft | 520 kts | 119° |
| 2026-05-05 10:09 | -30.17899 | 140.92338 | 37259 ft | 520 kts | 118° |
| 2026-05-05 10:10 | -30.21217 | 140.99776 | 37254 ft | 520 kts | 118° |
| 2026-05-05 10:10 | -30.24519 | 141.07217 | 37256 ft | 520 kts | 118° |
| 2026-05-05 10:11 | -30.27837 | 141.14711 | 37262 ft | 520 kts | 118° |
| 2026-05-05 10:11 | -30.31107 | 141.22109 | 37258 ft | 520 kts | 118° |
| 2026-05-05 10:12 | -30.34397 | 141.29565 | 37243 ft | 520 kts | 118° |
| 2026-05-05 10:12 | -30.37681 | 141.37019 | 37251 ft | 520 kts | 118° |
| 2026-05-05 10:13 | -30.40969 | 141.44485 | 37262 ft | 520 kts | 118° |
| 2026-05-05 10:13 | -30.44246 | 141.51942 | 37243 ft | 520 kts | 118° |
| 2026-05-05 10:14 | -30.47503 | 141.59371 | 37243 ft | 520 kts | 118° |
| 2026-05-05 10:14 | -30.50797 | 141.66901 | 37264 ft | 520 kts | 118° |
| 2026-05-05 10:15 | -30.54027 | 141.74296 | 37247 ft | 520 kts | 118° |
| 2026-05-05 10:15 | -30.57293 | 141.81791 | 37251 ft | 520 kts | 118° |
| 2026-05-05 10:16 | -30.60556 | 141.89292 | 37256 ft | 520 kts | 118° |
| 2026-05-05 10:16 | -30.63811 | 141.96793 | 37272 ft | 520 kts | 118° |
| 2026-05-05 10:17 | -30.67064 | 142.04302 | 37253 ft | 520 kts | 117° |
| 2026-05-05 10:17 | -30.70315 | 142.11820 | 37259 ft | 520 kts | 117° |
| 2026-05-05 10:18 | -30.73556 | 142.19333 | 37266 ft | 520 kts | 117° |
| 2026-05-05 10:18 | -30.76776 | 142.26809 | 37271 ft | 520 kts | 117° |
| 2026-05-05 10:19 | -30.80010 | 142.34335 | 37264 ft | 520 kts | 117° |
| 2026-05-05 10:19 | -30.83243 | 142.41874 | 37263 ft | 520 kts | 117° |
| 2026-05-05 10:20 | -30.86464 | 142.49401 | 37291 ft | 520 kts | 117° |
| 2026-05-05 10:20 | -30.89688 | 142.56949 | 37269 ft | 520 kts | 117° |
| 2026-05-05 10:21 | -30.92905 | 142.64495 | 37266 ft | 519 kts | 117° |
| 2026-05-05 10:21 | -30.95988 | 142.71744 | 37268 ft | 518 kts | 117° |
| 2026-05-05 10:22 | -30.99183 | 142.79269 | 37270 ft | 517 kts | 117° |
| 2026-05-05 10:22 | -31.02595 | 142.86646 | 37273 ft | 516 kts | 121° |
| 2026-05-05 10:23 | -31.06181 | 142.93843 | 37270 ft | 517 kts | 121° |
| 2026-05-05 10:23 | -31.09805 | 143.01098 | 37270 ft | 517 kts | 121° |
| 2026-05-05 10:24 | -31.13398 | 143.08372 | 37266 ft | 518 kts | 121° |
| 2026-05-05 10:24 | -31.16981 | 143.15677 | 37268 ft | 518 kts | 121° |
| 2026-05-05 10:25 | -31.20560 | 143.22994 | 37270 ft | 519 kts | 120° |
| 2026-05-05 10:25 | -31.24139 | 143.30322 | 37266 ft | 519 kts | 120° |
| 2026-05-05 10:26 | -31.27716 | 143.37658 | 37269 ft | 520 kts | 120° |
| 2026-05-05 10:26 | -31.31295 | 143.45010 | 37267 ft | 520 kts | 120° |
| 2026-05-05 10:27 | -31.34866 | 143.52359 | 37269 ft | 520 kts | 120° |
| 2026-05-05 10:27 | -31.38422 | 143.59694 | 37263 ft | 520 kts | 120° |
| 2026-05-05 10:28 | -31.41986 | 143.67058 | 37265 ft | 520 kts | 120° |
| 2026-05-05 10:28 | -31.45541 | 143.74419 | 37263 ft | 519 kts | 120° |
| 2026-05-05 10:29 | -31.49091 | 143.81782 | 37263 ft | 519 kts | 120° |
| 2026-05-05 10:29 | -31.52635 | 143.89150 | 37264 ft | 519 kts | 120° |
| 2026-05-05 10:30 | -31.56178 | 143.96527 | 37267 ft | 519 kts | 120° |
| 2026-05-05 10:30 | -31.59113 | 144.02651 | 37265 ft | 519 kts | 120° |
| 2026-05-05 10:31 | -31.63217 | 144.11229 | 37271 ft | 518 kts | 120° |
| 2026-05-05 10:31 | -31.66170 | 144.17413 | 37266 ft | 518 kts | 120° |
| 2026-05-05 10:32 | -31.69684 | 144.24786 | 37264 ft | 517 kts | 120° |
| 2026-05-05 10:32 | -31.73186 | 144.32149 | 37263 ft | 516 kts | 120° |
| 2026-05-05 10:33 | -31.76663 | 144.39474 | 37264 ft | 516 kts | 120° |
| 2026-05-05 10:33 | -31.80151 | 144.46835 | 37266 ft | 516 kts | 120° |
| 2026-05-05 10:34 | -31.83643 | 144.54221 | 37262 ft | 516 kts | 119° |
| 2026-05-05 10:34 | -31.87129 | 144.61607 | 37265 ft | 517 kts | 119° |
| 2026-05-05 10:35 | -31.90619 | 144.69018 | 37267 ft | 518 kts | 119° |
| 2026-05-05 10:35 | -31.94109 | 144.76442 | 37270 ft | 518 kts | 119° |
| 2026-05-05 10:36 | -31.97573 | 144.83824 | 37263 ft | 519 kts | 119° |
| 2026-05-05 10:36 | -32.01060 | 144.91273 | 37267 ft | 519 kts | 119° |
| 2026-05-05 10:37 | -32.04541 | 144.98724 | 37260 ft | 519 kts | 119° |
| 2026-05-05 10:37 | -32.08025 | 145.06194 | 37256 ft | 520 kts | 119° |
| 2026-05-05 10:38 | -32.11505 | 145.13673 | 37264 ft | 520 kts | 119° |
| 2026-05-05 10:38 | -32.14989 | 145.21175 | 37265 ft | 520 kts | 119° |
| 2026-05-05 10:39 | -32.18440 | 145.28620 | 37258 ft | 521 kts | 119° |
| 2026-05-05 10:39 | -32.21913 | 145.36128 | 37264 ft | 521 kts | 119° |
| 2026-05-05 10:40 | -32.25381 | 145.43641 | 37265 ft | 521 kts | 119° |
| 2026-05-05 10:40 | -32.28846 | 145.51163 | 37262 ft | 521 kts | 119° |
| 2026-05-05 10:41 | -32.32308 | 145.58694 | 37266 ft | 521 kts | 119° |
| 2026-05-05 10:41 | -32.35766 | 145.66232 | 37262 ft | 521 kts | 119° |
| 2026-05-05 10:42 | -32.40938 | 145.77535 | 37265 ft | 520 kts | 118° |
| 2026-05-05 10:43 | -32.44378 | 145.85073 | 37267 ft | 520 kts | 118° |
| 2026-05-05 10:43 | -32.47812 | 145.92612 | 37268 ft | 520 kts | 118° |
| 2026-05-05 10:44 | -32.51220 | 146.00111 | 37266 ft | 520 kts | 118° |
| 2026-05-05 10:44 | -32.54644 | 146.07660 | 37258 ft | 520 kts | 118° |
| 2026-05-05 10:45 | -32.58067 | 146.15222 | 37263 ft | 521 kts | 118° |
| 2026-05-05 10:45 | -32.61493 | 146.22807 | 37265 ft | 521 kts | 118° |
| 2026-05-05 10:46 | -32.64918 | 146.30405 | 37265 ft | 522 kts | 118° |
| 2026-05-05 10:46 | -32.68341 | 146.38015 | 37266 ft | 523 kts | 118° |
| 2026-05-05 10:47 | -32.71763 | 146.45639 | 37267 ft | 524 kts | 118° |
| 2026-05-05 10:47 | -32.75183 | 146.53274 | 37265 ft | 524 kts | 118° |
| 2026-05-05 10:48 | -32.78584 | 146.60885 | 37264 ft | 524 kts | 118° |
| 2026-05-05 10:48 | -32.81999 | 146.68542 | 37261 ft | 524 kts | 118° |
| 2026-05-05 10:49 | -32.85404 | 146.76193 | 37263 ft | 524 kts | 118° |
| 2026-05-05 10:49 | -32.88805 | 146.83852 | 37261 ft | 523 kts | 118° |
| 2026-05-05 10:50 | -32.92202 | 146.91518 | 37262 ft | 523 kts | 118° |
| 2026-05-05 10:50 | -32.95595 | 146.99191 | 37266 ft | 524 kts | 118° |
| 2026-05-05 10:51 | -32.98980 | 147.06862 | 37279 ft | 524 kts | 118° |
| 2026-05-05 10:51 | -33.02345 | 147.14504 | 37268 ft | 523 kts | 118° |
| 2026-05-05 10:52 | -33.05744 | 147.22239 | 37261 ft | 523 kts | 118° |
| 2026-05-05 10:52 | -33.09110 | 147.29919 | 37265 ft | 523 kts | 118° |
| 2026-05-05 10:53 | -33.12452 | 147.37558 | 37264 ft | 522 kts | 118° |
| 2026-05-05 10:53 | -33.15810 | 147.45251 | 37262 ft | 523 kts | 118° |
| 2026-05-05 10:54 | -33.19170 | 147.52967 | 37261 ft | 523 kts | 117° |
| 2026-05-05 10:54 | -33.22514 | 147.60661 | 37260 ft | 524 kts | 117° |
| 2026-05-05 10:55 | -33.25869 | 147.68399 | 37259 ft | 524 kts | 117° |
| 2026-05-05 10:55 | -33.29199 | 147.76096 | 37265 ft | 525 kts | 117° |
| 2026-05-05 10:56 | -33.32549 | 147.83855 | 37266 ft | 526 kts | 117° |
| 2026-05-05 10:56 | -33.36074 | 147.91511 | 37261 ft | 526 kts | 124° |
| 2026-05-05 10:57 | -33.40555 | 147.98403 | 37262 ft | 524 kts | 134° |
| 2026-05-05 10:57 | -33.45539 | 148.04771 | 37261 ft | 524 kts | 135° |
| 2026-05-05 10:58 | -33.50536 | 148.11143 | 37263 ft | 524 kts | 135° |
| 2026-05-05 10:58 | -33.55492 | 148.17551 | 37273 ft | 524 kts | 134° |
| 2026-05-05 10:59 | -33.60433 | 148.23992 | 37257 ft | 523 kts | 134° |
| 2026-05-05 10:59 | -33.65356 | 148.30428 | 37276 ft | 522 kts | 134° |
| 2026-05-05 11:00 | -33.70270 | 148.36855 | 37270 ft | 522 kts | 134° |
| 2026-05-05 11:00 | -33.75174 | 148.43280 | 37273 ft | 522 kts | 134° |
| 2026-05-05 11:01 | -33.80048 | 148.49675 | 37270 ft | 521 kts | 134° |
| 2026-05-05 11:01 | -33.84955 | 148.56126 | 37272 ft | 521 kts | 134° |
| 2026-05-05 11:02 | -33.89832 | 148.62551 | 37284 ft | 522 kts | 134° |
| 2026-05-05 11:02 | -33.94725 | 148.69008 | 37263 ft | 522 kts | 134° |
| 2026-05-05 11:03 | -33.99618 | 148.75477 | 37242 ft | 520 kts | 134° |
| 2026-05-05 11:03 | -34.02051 | 148.78697 | 36928 ft | 521 kts | 134° |
| 2026-05-05 11:03 | -34.04490 | 148.81930 | 36530 ft | 522 kts | 134° |
| 2026-05-05 11:03 | -34.06943 | 148.85182 | 36182 ft | 523 kts | 134° |
| 2026-05-05 11:04 | -34.09384 | 148.88423 | 35856 ft | 523 kts | 134° |
| 2026-05-05 11:04 | -34.11827 | 148.91670 | 35539 ft | 522 kts | 134° |
| 2026-05-05 11:04 | -34.14261 | 148.94908 | 35247 ft | 520 kts | 134° |
| 2026-05-05 11:04 | -34.16695 | 148.98148 | 34935 ft | 520 kts | 134° |
| 2026-05-05 11:05 | -34.19116 | 149.01374 | 34625 ft | 519 kts | 134° |
| 2026-05-05 11:05 | -34.21539 | 149.04605 | 34305 ft | 518 kts | 134° |
| 2026-05-05 11:05 | -34.23954 | 149.07829 | 33801 ft | 520 kts | 134° |
| 2026-05-05 11:05 | -34.26382 | 149.11074 | 33310 ft | 520 kts | 134° |
| 2026-05-05 11:06 | -34.28782 | 149.14284 | 32926 ft | 519 kts | 133° |
| 2026-05-05 11:06 | -34.31226 | 149.17557 | 32559 ft | 517 kts | 133° |
| 2026-05-05 11:06 | -34.33596 | 149.20733 | 32221 ft | 514 kts | 133° |
| 2026-05-05 11:06 | -34.35985 | 149.23937 | 31947 ft | 510 kts | 133° |
| 2026-05-05 11:07 | -34.38378 | 149.27149 | 31695 ft | 506 kts | 133° |
| 2026-05-05 11:07 | -34.40623 | 149.30419 | 31422 ft | 504 kts | 126° |
| 2026-05-05 11:07 | -34.42364 | 149.34089 | 31134 ft | 502 kts | 115° |
| 2026-05-05 11:07 | -34.43603 | 149.38021 | 30810 ft | 499 kts | 107° |
| 2026-05-05 11:08 | -34.44311 | 149.42045 | 30284 ft | 494 kts | 97° |
| 2026-05-05 11:08 | -34.44753 | 149.46151 | 29663 ft | 488 kts | 97° |
| 2026-05-05 11:08 | -34.45179 | 149.50219 | 29085 ft | 483 kts | 97° |
| 2026-05-05 11:08 | -34.45615 | 149.54229 | 28521 ft | 477 kts | 97° |
| 2026-05-05 11:09 | -34.46065 | 149.58186 | 27973 ft | 471 kts | 98° |
| 2026-05-05 11:09 | -34.46523 | 149.62094 | 27423 ft | 467 kts | 98° |
| 2026-05-05 11:09 | -34.46983 | 149.65966 | 26888 ft | 462 kts | 98° |
| 2026-05-05 11:09 | -34.47442 | 149.69811 | 26348 ft | 459 kts | 98° |
| 2026-05-05 11:10 | -34.47893 | 149.73615 | 25822 ft | 455 kts | 98° |
| 2026-05-05 11:10 | -34.48340 | 149.77397 | 25293 ft | 452 kts | 98° |
| 2026-05-05 11:10 | -34.48783 | 149.81159 | 24764 ft | 449 kts | 98° |
| 2026-05-05 11:10 | -34.49220 | 149.84883 | 24237 ft | 446 kts | 98° |
| 2026-05-05 11:11 | -34.49634 | 149.88605 | 23650 ft | 442 kts | 95° |
| 2026-05-05 11:11 | -34.49591 | 149.92264 | 23071 ft | 439 kts | 81° |
| 2026-05-05 11:11 | -34.48914 | 149.95889 | 22505 ft | 434 kts | 70° |
| 2026-05-05 11:11 | -34.47728 | 149.99218 | 21965 ft | 427 kts | 60° |
| 2026-05-05 11:12 | -34.46321 | 150.02305 | 21461 ft | 423 kts | 59° |
| 2026-05-05 11:12 | -34.44900 | 150.05411 | 20950 ft | 420 kts | 59° |
| 2026-05-05 11:12 | -34.43480 | 150.08540 | 20416 ft | 417 kts | 60° |
| 2026-05-05 11:12 | -34.42109 | 150.11585 | 19914 ft | 415 kts | 60° |
| 2026-05-05 11:13 | -34.40738 | 150.14653 | 19397 ft | 413 kts | 60° |
| 2026-05-05 11:13 | -34.39378 | 150.17707 | 18878 ft | 411 kts | 60° |
| 2026-05-05 11:13 | -34.38025 | 150.20748 | 18328 ft | 409 kts | 60° |
| 2026-05-05 11:13 | -34.36676 | 150.23781 | 17753 ft | 407 kts | 60° |
| 2026-05-05 11:14 | -34.35336 | 150.26791 | 17219 ft | 404 kts | 60° |
| 2026-05-05 11:14 | -34.34006 | 150.29775 | 16677 ft | 401 kts | 61° |
| 2026-05-05 11:14 | -34.32688 | 150.32731 | 16166 ft | 398 kts | 61° |
| 2026-05-05 11:14 | -34.31379 | 150.35663 | 15669 ft | 395 kts | 61° |
| 2026-05-05 11:15 | -34.30078 | 150.38576 | 15159 ft | 392 kts | 61° |
| 2026-05-05 11:15 | -34.28781 | 150.41476 | 14660 ft | 389 kts | 61° |
| 2026-05-05 11:15 | -34.27498 | 150.44341 | 14151 ft | 387 kts | 61° |
| 2026-05-05 11:15 | -34.26216 | 150.47205 | 13489 ft | 388 kts | 61° |
| 2026-05-05 11:16 | -34.24929 | 150.50078 | 12918 ft | 386 kts | 61° |
| 2026-05-05 11:16 | -34.23671 | 150.52886 | 12396 ft | 383 kts | 62° |
| 2026-05-05 11:16 | -34.22390 | 150.55743 | 11882 ft | 380 kts | 62° |
| 2026-05-05 11:16 | -34.21155 | 150.58499 | 11384 ft | 377 kts | 62° |
| 2026-05-05 11:17 | -34.20313 | 150.60375 | 11059 ft | 375 kts | 62° |
| 2026-05-05 11:17 | -34.18689 | 150.63989 | 10753 ft | 360 kts | 62° |
| 2026-05-05 11:17 | -34.17513 | 150.66602 | 10596 ft | 349 kts | 62° |
| 2026-05-05 11:17 | -34.16374 | 150.69132 | 10507 ft | 336 kts | 62° |
| 2026-05-05 11:18 | -34.15643 | 150.70758 | 10452 ft | 328 kts | 62° |
| 2026-05-05 11:18 | -34.14223 | 150.73913 | 10340 ft | 312 kts | 62° |
| 2026-05-05 11:18 | -34.13548 | 150.75412 | 10278 ft | 304 kts | 62° |
| 2026-05-05 11:18 | -34.12552 | 150.77623 | 10202 ft | 293 kts | 62° |
| 2026-05-05 11:19 | -34.11562 | 150.79716 | 10079 ft | 280 kts | 54° |
| 2026-05-05 11:19 | -34.10134 | 150.81253 | 9763 ft | 276 kts | 25° |
| 2026-05-05 11:19 | -34.08359 | 150.82039 | 9496 ft | 270 kts | 15° |
| 2026-05-05 11:19 | -34.06546 | 150.82621 | 9180 ft | 269 kts | 13° |
| 2026-05-05 11:20 | -34.04737 | 150.83170 | 8867 ft | 267 kts | 13° |
| 2026-05-05 11:20 | -34.02937 | 150.83717 | 8563 ft | 266 kts | 13° |
| 2026-05-05 11:20 | -34.01157 | 150.84253 | 8339 ft | 261 kts | 13° |
| 2026-05-05 11:20 | -33.99404 | 150.84778 | 8138 ft | 258 kts | 13° |
| 2026-05-05 11:21 | -33.97665 | 150.85297 | 7947 ft | 258 kts | 13° |
| 2026-05-05 11:21 | -33.95919 | 150.85819 | 7751 ft | 259 kts | 13° |
| 2026-05-05 11:21 | -33.94155 | 150.86347 | 7555 ft | 260 kts | 13° |
| 2026-05-05 11:21 | -33.92421 | 150.86867 | 7368 ft | 260 kts | 12° |
| 2026-05-05 11:22 | -33.90678 | 150.87391 | 7192 ft | 259 kts | 13° |
| 2026-05-05 11:22 | -33.88937 | 150.87916 | 7068 ft | 256 kts | 13° |
| 2026-05-05 11:22 | -33.87224 | 150.88433 | 6941 ft | 253 kts | 12° |
| 2026-05-05 11:22 | -33.85523 | 150.88949 | 6811 ft | 251 kts | 12° |
| 2026-05-05 11:23 | -33.83837 | 150.89462 | 6683 ft | 249 kts | 13° |
| 2026-05-05 11:23 | -33.82146 | 150.89977 | 6568 ft | 252 kts | 13° |
| 2026-05-05 11:23 | -33.80443 | 150.90489 | 6452 ft | 252 kts | 13° |
| 2026-05-05 11:23 | -33.78765 | 150.90982 | 6307 ft | 244 kts | 13° |
| 2026-05-05 11:24 | -33.77137 | 150.91451 | 6135 ft | 236 kts | 13° |
| 2026-05-05 11:24 | -33.75557 | 150.91894 | 5982 ft | 230 kts | 13° |
| 2026-05-05 11:24 | -33.74006 | 150.92316 | 5860 ft | 229 kts | 13° |
| 2026-05-05 11:24 | -33.72442 | 150.92730 | 5730 ft | 230 kts | 13° |
| 2026-05-05 11:25 | -33.70871 | 150.93138 | 5612 ft | 231 kts | 13° |
| 2026-05-05 11:25 | -33.69390 | 150.93795 | 5439 ft | 227 kts | 38° |
| 2026-05-05 11:25 | -33.68431 | 150.95218 | 5261 ft | 215 kts | 66° |
| 2026-05-05 11:25 | -33.67908 | 150.96819 | 5198 ft | 203 kts | 72° |
| 2026-05-05 11:26 | -33.67441 | 150.98413 | 5018 ft | 203 kts | 72° |
| 2026-05-05 11:26 | -33.66974 | 151.00010 | 4797 ft | 202 kts | 72° |
| 2026-05-05 11:26 | -33.66508 | 151.01599 | 4538 ft | 202 kts | 72° |
| 2026-05-05 11:26 | -33.66040 | 151.03186 | 4316 ft | 200 kts | 72° |
| 2026-05-05 11:27 | -33.65639 | 151.04755 | 4103 ft | 192 kts | 88° |
| 2026-05-05 11:27 | -33.65937 | 151.06271 | 3917 ft | 190 kts | 128° |
| 2026-05-05 11:27 | -33.66838 | 151.07434 | 3891 ft | 193 kts | 137° |
| 2026-05-05 11:27 | -33.67820 | 151.08567 | 3802 ft | 196 kts | 137° |
| 2026-05-05 11:28 | -33.68802 | 151.09692 | 3690 ft | 193 kts | 137° |
| 2026-05-05 11:28 | -33.69777 | 151.10727 | 3633 ft | 182 kts | 150° |
| 2026-05-05 11:28 | -33.70939 | 151.11262 | 3588 ft | 180 kts | 162° |
| 2026-05-05 11:28 | -33.72147 | 151.11691 | 3559 ft | 181 kts | 165° |
| 2026-05-05 11:29 | -33.73368 | 151.12058 | 3521 ft | 181 kts | 166° |
| 2026-05-05 11:29 | -33.74593 | 151.12393 | 3457 ft | 180 kts | 167° |
| 2026-05-05 11:29 | -33.75817 | 151.12715 | 3406 ft | 180 kts | 167° |
| 2026-05-05 11:29 | -33.77052 | 151.13037 | 3212 ft | 183 kts | 167° |
| 2026-05-05 11:30 | -33.78292 | 151.13358 | 2960 ft | 181 kts | 167° |
| 2026-05-05 11:30 | -33.79509 | 151.13672 | 2746 ft | 177 kts | 167° |
| 2026-05-05 11:30 | -33.80690 | 151.13978 | 2498 ft | 170 kts | 167° |
| 2026-05-05 11:30 | -33.81803 | 151.14267 | 2312 ft | 156 kts | 167° |
| 2026-05-05 11:31 | -33.82887 | 151.14548 | 2104 ft | 161 kts | 167° |
| 2026-05-05 11:31 | -33.83974 | 151.14830 | 1874 ft | 157 kts | 167° |
| 2026-05-05 11:31 | -33.85026 | 151.15103 | 1660 ft | 150 kts | 167° |
| 2026-05-05 11:31 | -33.86009 | 151.15360 | 1467 ft | 142 kts | 167° |
| 2026-05-05 11:32 | -33.86973 | 151.15614 | 1290 ft | 142 kts | 168° |
| 2026-05-05 11:32 | -33.87938 | 151.15867 | 1105 ft | 142 kts | 169° |
| 2026-05-05 11:32 | -33.88897 | 151.16110 | 934 ft | 139 kts | 169° |
| 2026-05-05 11:32 | -33.89831 | 151.16354 | 736 ft | 136 kts | 169° |
| 2026-05-05 11:33 | -33.90786 | 151.16599 | 554 ft | 144 kts | 170° |
| 2026-05-05 11:33 | -33.91772 | 151.16859 | 334 ft | 144 kts | 171° |
| 2026-05-05 11:33 | -33.92739 | 151.17110 | 131 ft | 143 kts | 169° |
| 2026-05-05 11:33 | -33.93700 | 151.17355 | 32 ft | 133 kts | 168° |
| 2026-05-05 11:34 | -33.94442 | 151.17551 | 35 ft | 83 kts | 168° |
| 2026-05-05 11:34 | -33.94876 | 151.17663 | 34 ft | 52 kts | 167° |
| 2026-05-05 11:34 | -33.95159 | 151.17736 | 33 ft | 22 kts | 168° |
| 2026-05-05 11:34 | -33.95230 | 151.17730 | 33 ft | 10 kts | 221° |
| 2026-05-05 11:35 | -33.95256 | 151.17653 | 34 ft | 10 kts | 256° |
| 2026-05-05 11:35 | -33.95260 | 151.17587 | 34 ft | 7 kts | 293° |
| 2026-05-05 11:35 | -33.95218 | 151.17552 | 34 ft | 8 kts | 338° |
| 2026-05-05 11:35 | -33.95166 | 151.17535 | 34 ft | 8 kts | 347° |
| 2026-05-05 11:36 | -33.95111 | 151.17520 | 34 ft | 8 kts | 347° |
| 2026-05-05 11:36 | -33.95054 | 151.17505 | 34 ft | 9 kts | 347° |
| 2026-05-05 11:36 | -33.94986 | 151.17488 | 34 ft | 12 kts | 348° |
| 2026-05-05 11:36 | -33.94889 | 151.17462 | 34 ft | 16 kts | 347° |
| 2026-05-05 11:37 | -33.94781 | 151.17435 | 35 ft | 16 kts | 348° |
| 2026-05-05 11:37 | -33.94674 | 151.17407 | 35 ft | 16 kts | 348° |
| 2026-05-05 11:37 | -33.94567 | 151.17379 | 35 ft | 16 kts | 347° |
| 2026-05-05 11:37 | -33.94459 | 151.17351 | 35 ft | 16 kts | 348° |
| 2026-05-05 11:38 | -33.94352 | 151.17323 | 35 ft | 16 kts | 348° |
| 2026-05-05 11:38 | -33.94246 | 151.17295 | 34 ft | 16 kts | 348° |
| 2026-05-05 11:38 | -33.94137 | 151.17267 | 33 ft | 16 kts | 348° |
| 2026-05-05 11:38 | -33.94044 | 151.17243 | 34 ft | 9 kts | 348° |
| 2026-05-05 11:39 | -33.93992 | 151.17218 | 34 ft | 8 kts | 311° |
| 2026-05-05 11:39 | -33.93988 | 151.17152 | 34 ft | 8 kts | 255° |
| 2026-05-05 11:39 | -33.94004 | 151.17084 | 34 ft | 8 kts | 254° |
| 2026-05-05 11:39 | -33.94020 | 151.17017 | 35 ft | 8 kts | 254° |
| 2026-05-05 11:40 | -33.94036 | 151.16949 | 35 ft | 8 kts | 254° |
| 2026-05-05 11:40 | -33.94051 | 151.16884 | 35 ft | 6 kts | 254° |
| 2026-05-05 11:40 | -33.94054 | 151.16838 | 35 ft | 6 kts | 278° |
| 2026-05-05 11:40 | -33.94038 | 151.16795 | 35 ft | 6 kts | 300° |
| 2026-05-05 11:41 | -33.94018 | 151.16756 | 35 ft | 6 kts | 302° |
| 2026-05-05 11:41 | -33.93998 | 151.16719 | 35 ft | 5 kts | 303° |
| 2026-05-05 11:41 | -33.93984 | 151.16693 | 35 ft | 2 kts | 303° |
| 2026-05-05 11:41 | -33.93978 | 151.16681 | 35 ft | 1 kts | 303° |
| 2026-05-05 11:42 | -33.93977 | 151.16679 | 35 ft | 0 kts | 303° |